<?xml version="1.0" encoding="UTF-8" standalone="no" ?>
<gpx xmlns="http://www.topografix.com/GPX/1/1" xmlns:xsi="http://www.w3.org/2001/XMLSchema-instance" xsi:schemaLocation="http://www.topografix.com/GPX/1/1 http://www.topografix.com/GPX/1/1/gpx.xsd" version="1.1" creator="VisuGPX - https://www.visugpx.com">
  <metadata>
    <name>grande boucle_rectifiée</name>
  </metadata>
  <trk>
    <name><![CDATA[Parcours du 1er Mai 2024-18707402]]></name>
    <extensions>
      <line xmlns="http://www.topografix.com/GPX/gpx_style/0/2">
        <color>0000FF</color>
        <width>4</width>
      </line>
    </extensions>
    <trkseg>
      <trkpt lat="44.61592" lon="0.10626">
        <ele>76</ele>
        <time>2025-04-18T12:13:28Z</time>
      </trkpt>
      <trkpt lat="44.61588" lon="0.10663">
        <ele>77</ele>
        <time>2025-04-18T12:13:23Z</time>
      </trkpt>
      <trkpt lat="44.61577" lon="0.10699">
        <ele>78</ele>
        <time>2025-04-18T12:13:18Z</time>
      </trkpt>
      <trkpt lat="44.61577" lon="0.10712">
        <ele>79</ele>
        <time>2025-04-18T12:13:16Z</time>
      </trkpt>
      <trkpt lat="44.61581" lon="0.10717">
        <ele>79</ele>
        <time>2025-04-18T12:13:15Z</time>
      </trkpt>
      <trkpt lat="44.61585" lon="0.10719">
        <ele>80</ele>
        <time>2025-04-18T12:13:15Z</time>
      </trkpt>
      <trkpt lat="44.61582" lon="0.10715">
        <ele>79</ele>
        <time>2025-04-18T12:13:14Z</time>
      </trkpt>
      <trkpt lat="44.61591" lon="0.10722">
        <ele>80</ele>
        <time>2025-04-18T12:13:12Z</time>
      </trkpt>
      <trkpt lat="44.61609" lon="0.10727">
        <ele>81</ele>
        <time>2025-04-18T12:13:09Z</time>
      </trkpt>
      <trkpt lat="44.61629" lon="0.10737">
        <ele>83</ele>
        <time>2025-04-18T12:13:05Z</time>
      </trkpt>
      <trkpt lat="44.61694" lon="0.10762">
        <ele>87</ele>
        <time>2025-04-18T12:12:53Z</time>
      </trkpt>
      <trkpt lat="44.6179" lon="0.10793">
        <ele>91</ele>
        <time>2025-04-18T12:12:36Z</time>
      </trkpt>
      <trkpt lat="44.61826" lon="0.10809">
        <ele>92</ele>
        <time>2025-04-18T12:12:29Z</time>
      </trkpt>
      <trkpt lat="44.6186" lon="0.10828">
        <ele>92</ele>
        <time>2025-04-18T12:12:22Z</time>
      </trkpt>
      <trkpt lat="44.61902" lon="0.10868">
        <ele>91</ele>
        <time>2025-04-18T12:12:13Z</time>
      </trkpt>
      <trkpt lat="44.61962" lon="0.10941">
        <ele>91</ele>
        <time>2025-04-18T12:11:59Z</time>
      </trkpt>
      <trkpt lat="44.62027" lon="0.11015">
        <ele>91</ele>
        <time>2025-04-18T12:11:44Z</time>
      </trkpt>
      <trkpt lat="44.62076" lon="0.11046">
        <ele>91</ele>
        <time>2025-04-18T12:11:35Z</time>
      </trkpt>
      <trkpt lat="44.62365" lon="0.11202">
        <ele>107</ele>
        <time>2025-04-18T12:10:40Z</time>
      </trkpt>
      <trkpt lat="44.62379" lon="0.11212">
        <ele>108</ele>
        <time>2025-04-18T12:10:37Z</time>
      </trkpt>
      <trkpt lat="44.62416" lon="0.11248">
        <ele>110</ele>
        <time>2025-04-18T12:10:29Z</time>
      </trkpt>
      <trkpt lat="44.62452" lon="0.11288">
        <ele>111</ele>
        <time>2025-04-18T12:10:21Z</time>
      </trkpt>
      <trkpt lat="44.62472" lon="0.11317">
        <ele>111</ele>
        <time>2025-04-18T12:10:16Z</time>
      </trkpt>
      <trkpt lat="44.6256" lon="0.11465">
        <ele>109</ele>
        <time>2025-04-18T12:09:51Z</time>
      </trkpt>
      <trkpt lat="44.62576" lon="0.11499">
        <ele>109</ele>
        <time>2025-04-18T12:09:46Z</time>
      </trkpt>
      <trkpt lat="44.62585" lon="0.11535">
        <ele>110</ele>
        <time>2025-04-18T12:09:41Z</time>
      </trkpt>
      <trkpt lat="44.62605" lon="0.11728">
        <ele>112</ele>
        <time>2025-04-18T12:09:16Z</time>
      </trkpt>
      <trkpt lat="44.62611" lon="0.11764">
        <ele>113</ele>
        <time>2025-04-18T12:09:12Z</time>
      </trkpt>
      <trkpt lat="44.62621" lon="0.11795">
        <ele>113</ele>
        <time>2025-04-18T12:09:07Z</time>
      </trkpt>
      <trkpt lat="44.62646" lon="0.11833">
        <ele>114</ele>
        <time>2025-04-18T12:09:01Z</time>
      </trkpt>
      <trkpt lat="44.6269" lon="0.11881">
        <ele>114</ele>
        <time>2025-04-18T12:08:51Z</time>
      </trkpt>
      <trkpt lat="44.62772" lon="0.1196">
        <ele>115</ele>
        <time>2025-04-18T12:08:33Z</time>
      </trkpt>
      <trkpt lat="44.62853" lon="0.12022">
        <ele>116</ele>
        <time>2025-04-18T12:08:17Z</time>
      </trkpt>
      <trkpt lat="44.62878" lon="0.12038">
        <ele>117</ele>
        <time>2025-04-18T12:08:12Z</time>
      </trkpt>
      <trkpt lat="44.62903" lon="0.12048">
        <ele>118</ele>
        <time>2025-04-18T12:08:07Z</time>
      </trkpt>
      <trkpt lat="44.63007" lon="0.12078">
        <ele>120</ele>
        <time>2025-04-18T12:07:49Z</time>
      </trkpt>
      <trkpt lat="44.63042" lon="0.1209">
        <ele>120</ele>
        <time>2025-04-18T12:07:42Z</time>
      </trkpt>
      <trkpt lat="44.63066" lon="0.12101">
        <ele>119</ele>
        <time>2025-04-18T12:07:38Z</time>
      </trkpt>
      <trkpt lat="44.63256" lon="0.12242">
        <ele>119</ele>
        <time>2025-04-18T12:06:59Z</time>
      </trkpt>
      <trkpt lat="44.63306" lon="0.12267">
        <ele>117</ele>
        <time>2025-04-18T12:06:50Z</time>
      </trkpt>
      <trkpt lat="44.63449" lon="0.12331">
        <ele>118</ele>
        <time>2025-04-18T12:06:23Z</time>
      </trkpt>
      <trkpt lat="44.63491" lon="0.1234">
        <ele>119</ele>
        <time>2025-04-18T12:06:16Z</time>
      </trkpt>
      <trkpt lat="44.63656" lon="0.12336">
        <ele>115</ele>
        <time>2025-04-18T12:05:46Z</time>
      </trkpt>
      <trkpt lat="44.63697" lon="0.12322">
        <ele>114</ele>
        <time>2025-04-18T12:05:39Z</time>
      </trkpt>
      <trkpt lat="44.63823" lon="0.12251">
        <ele>111</ele>
        <time>2025-04-18T12:05:15Z</time>
      </trkpt>
      <trkpt lat="44.63852" lon="0.1224">
        <ele>111</ele>
        <time>2025-04-18T12:05:09Z</time>
      </trkpt>
      <trkpt lat="44.63879" lon="0.12234">
        <ele>111</ele>
        <time>2025-04-18T12:05:04Z</time>
      </trkpt>
      <trkpt lat="44.63907" lon="0.12233">
        <ele>111</ele>
        <time>2025-04-18T12:04:59Z</time>
      </trkpt>
      <trkpt lat="44.64076" lon="0.12241">
        <ele>105</ele>
        <time>2025-04-18T12:04:29Z</time>
      </trkpt>
      <trkpt lat="44.64101" lon="0.12241">
        <ele>103</ele>
        <time>2025-04-18T12:04:25Z</time>
      </trkpt>
      <trkpt lat="44.64124" lon="0.12238">
        <ele>101</ele>
        <time>2025-04-18T12:04:21Z</time>
      </trkpt>
      <trkpt lat="44.64146" lon="0.12226">
        <ele>101</ele>
        <time>2025-04-18T12:04:17Z</time>
      </trkpt>
      <trkpt lat="44.64156" lon="0.12217">
        <ele>101</ele>
        <time>2025-04-18T12:04:14Z</time>
      </trkpt>
      <trkpt lat="44.64174" lon="0.12193">
        <ele>101</ele>
        <time>2025-04-18T12:04:10Z</time>
      </trkpt>
      <trkpt lat="44.64227" lon="0.12069">
        <ele>104</ele>
        <time>2025-04-18T12:03:52Z</time>
      </trkpt>
      <trkpt lat="44.6424" lon="0.12047">
        <ele>103</ele>
        <time>2025-04-18T12:03:48Z</time>
      </trkpt>
      <trkpt lat="44.64257" lon="0.12034">
        <ele>103</ele>
        <time>2025-04-18T12:03:45Z</time>
      </trkpt>
      <trkpt lat="44.64273" lon="0.12029">
        <ele>103</ele>
        <time>2025-04-18T12:03:42Z</time>
      </trkpt>
      <trkpt lat="44.6428" lon="0.1203">
        <ele>102</ele>
        <time>2025-04-18T12:03:41Z</time>
      </trkpt>
      <trkpt lat="44.64348" lon="0.1206">
        <ele>102</ele>
        <time>2025-04-18T12:03:28Z</time>
      </trkpt>
      <trkpt lat="44.64471" lon="0.12107">
        <ele>100</ele>
        <time>2025-04-18T12:03:05Z</time>
      </trkpt>
      <trkpt lat="44.64506" lon="0.12126">
        <ele>99</ele>
        <time>2025-04-18T12:02:59Z</time>
      </trkpt>
      <trkpt lat="44.64527" lon="0.12143">
        <ele>99</ele>
        <time>2025-04-18T12:02:54Z</time>
      </trkpt>
      <trkpt lat="44.64553" lon="0.12174">
        <ele>98</ele>
        <time>2025-04-18T12:02:48Z</time>
      </trkpt>
      <trkpt lat="44.64569" lon="0.122">
        <ele>97</ele>
        <time>2025-04-18T12:02:44Z</time>
      </trkpt>
      <trkpt lat="44.64583" lon="0.12233">
        <ele>97</ele>
        <time>2025-04-18T12:02:39Z</time>
      </trkpt>
      <trkpt lat="44.64594" lon="0.12247">
        <ele>96</ele>
        <time>2025-04-18T12:02:36Z</time>
      </trkpt>
      <trkpt lat="44.64647" lon="0.12255">
        <ele>97</ele>
        <time>2025-04-18T12:02:27Z</time>
      </trkpt>
      <trkpt lat="44.64764" lon="0.12252">
        <ele>98</ele>
        <time>2025-04-18T12:02:06Z</time>
      </trkpt>
      <trkpt lat="44.64782" lon="0.12264">
        <ele>98</ele>
        <time>2025-04-18T12:02:02Z</time>
      </trkpt>
      <trkpt lat="44.64819" lon="0.12306">
        <ele>97</ele>
        <time>2025-04-18T12:01:54Z</time>
      </trkpt>
      <trkpt lat="44.64828" lon="0.12312">
        <ele>97</ele>
        <time>2025-04-18T12:01:52Z</time>
      </trkpt>
      <trkpt lat="44.64838" lon="0.12316">
        <ele>96</ele>
        <time>2025-04-18T12:01:50Z</time>
      </trkpt>
      <trkpt lat="44.64881" lon="0.12304">
        <ele>93</ele>
        <time>2025-04-18T12:01:43Z</time>
      </trkpt>
      <trkpt lat="44.64893" lon="0.12305">
        <ele>92</ele>
        <time>2025-04-18T12:01:40Z</time>
      </trkpt>
      <trkpt lat="44.64904" lon="0.1231">
        <ele>91</ele>
        <time>2025-04-18T12:01:38Z</time>
      </trkpt>
      <trkpt lat="44.64975" lon="0.12367">
        <ele>83</ele>
        <time>2025-04-18T12:01:24Z</time>
      </trkpt>
      <trkpt lat="44.64985" lon="0.12378">
        <ele>82</ele>
        <time>2025-04-18T12:01:22Z</time>
      </trkpt>
      <trkpt lat="44.65015" lon="0.12425">
        <ele>80</ele>
        <time>2025-04-18T12:01:14Z</time>
      </trkpt>
      <trkpt lat="44.65024" lon="0.12434">
        <ele>79</ele>
        <time>2025-04-18T12:01:12Z</time>
      </trkpt>
      <trkpt lat="44.65043" lon="0.12448">
        <ele>78</ele>
        <time>2025-04-18T12:01:08Z</time>
      </trkpt>
      <trkpt lat="44.65073" lon="0.12465">
        <ele>76</ele>
        <time>2025-04-18T12:01:02Z</time>
      </trkpt>
      <trkpt lat="44.65094" lon="0.12471">
        <ele>74</ele>
        <time>2025-04-18T12:00:58Z</time>
      </trkpt>
      <trkpt lat="44.65115" lon="0.12467">
        <ele>73</ele>
        <time>2025-04-18T12:00:54Z</time>
      </trkpt>
      <trkpt lat="44.65147" lon="0.12453">
        <ele>71</ele>
        <time>2025-04-18T12:00:48Z</time>
      </trkpt>
      <trkpt lat="44.6516" lon="0.12452">
        <ele>69</ele>
        <time>2025-04-18T12:00:46Z</time>
      </trkpt>
      <trkpt lat="44.65184" lon="0.12456">
        <ele>67</ele>
        <time>2025-04-18T12:00:42Z</time>
      </trkpt>
      <trkpt lat="44.65288" lon="0.125">
        <ele>60</ele>
        <time>2025-04-18T12:00:23Z</time>
      </trkpt>
      <trkpt lat="44.65491" lon="0.12591">
        <ele>50</ele>
        <time>2025-04-18T11:59:45Z</time>
      </trkpt>
      <trkpt lat="44.65527" lon="0.12606">
        <ele>49</ele>
        <time>2025-04-18T11:59:38Z</time>
      </trkpt>
      <trkpt lat="44.65602" lon="0.12632">
        <ele>47</ele>
        <time>2025-04-18T11:59:24Z</time>
      </trkpt>
      <trkpt lat="44.65693" lon="0.1265">
        <ele>45</ele>
        <time>2025-04-18T11:59:08Z</time>
      </trkpt>
      <trkpt lat="44.6589" lon="0.12678">
        <ele>40</ele>
        <time>2025-04-18T11:58:33Z</time>
      </trkpt>
      <trkpt lat="44.66014" lon="0.12712">
        <ele>36</ele>
        <time>2025-04-18T11:58:10Z</time>
      </trkpt>
      <trkpt lat="44.66034" lon="0.12725">
        <ele>35</ele>
        <time>2025-04-18T11:58:06Z</time>
      </trkpt>
      <trkpt lat="44.6608" lon="0.12725">
        <ele>34</ele>
        <time>2025-04-18T11:57:58Z</time>
      </trkpt>
      <trkpt lat="44.6617" lon="0.12734">
        <ele>35</ele>
        <time>2025-04-18T11:57:42Z</time>
      </trkpt>
      <trkpt lat="44.6621" lon="0.12743">
        <ele>35</ele>
        <time>2025-04-18T11:57:35Z</time>
      </trkpt>
      <trkpt lat="44.66307" lon="0.12776">
        <ele>31</ele>
        <time>2025-04-18T11:57:17Z</time>
      </trkpt>
      <trkpt lat="44.66331" lon="0.12792">
        <ele>31</ele>
        <time>2025-04-18T11:57:12Z</time>
      </trkpt>
      <trkpt lat="44.66385" lon="0.12853">
        <ele>29</ele>
        <time>2025-04-18T11:57:00Z</time>
      </trkpt>
      <trkpt lat="44.6641" lon="0.12872">
        <ele>29</ele>
        <time>2025-04-18T11:56:55Z</time>
      </trkpt>
      <trkpt lat="44.66498" lon="0.12929">
        <ele>26</ele>
        <time>2025-04-18T11:56:38Z</time>
      </trkpt>
      <trkpt lat="44.66613" lon="0.13036">
        <ele>25</ele>
        <time>2025-04-18T11:56:13Z</time>
      </trkpt>
      <trkpt lat="44.66635" lon="0.13053">
        <ele>26</ele>
        <time>2025-04-18T11:56:09Z</time>
      </trkpt>
      <trkpt lat="44.66658" lon="0.13063">
        <ele>26</ele>
        <time>2025-04-18T11:56:04Z</time>
      </trkpt>
      <trkpt lat="44.66682" lon="0.13064">
        <ele>27</ele>
        <time>2025-04-18T11:56:00Z</time>
      </trkpt>
      <trkpt lat="44.66694" lon="0.13062">
        <ele>27</ele>
        <time>2025-04-18T11:55:58Z</time>
      </trkpt>
      <trkpt lat="44.66718" lon="0.13053">
        <ele>27</ele>
        <time>2025-04-18T11:55:54Z</time>
      </trkpt>
      <trkpt lat="44.66729" lon="0.13045">
        <ele>26</ele>
        <time>2025-04-18T11:55:51Z</time>
      </trkpt>
      <trkpt lat="44.66747" lon="0.13024">
        <ele>26</ele>
        <time>2025-04-18T11:55:47Z</time>
      </trkpt>
      <trkpt lat="44.66825" lon="0.12919">
        <ele>26</ele>
        <time>2025-04-18T11:55:28Z</time>
      </trkpt>
      <trkpt lat="44.66845" lon="0.12903">
        <ele>26</ele>
        <time>2025-04-18T11:55:24Z</time>
      </trkpt>
      <trkpt lat="44.66856" lon="0.12897">
        <ele>26</ele>
        <time>2025-04-18T11:55:22Z</time>
      </trkpt>
      <trkpt lat="44.66868" lon="0.12894">
        <ele>26</ele>
        <time>2025-04-18T11:55:20Z</time>
      </trkpt>
      <trkpt lat="44.6699" lon="0.12868">
        <ele>29</ele>
        <time>2025-04-18T11:54:58Z</time>
      </trkpt>
      <trkpt lat="44.67014" lon="0.12866">
        <ele>29</ele>
        <time>2025-04-18T11:54:53Z</time>
      </trkpt>
      <trkpt lat="44.67051" lon="0.12867">
        <ele>29</ele>
        <time>2025-04-18T11:54:47Z</time>
      </trkpt>
      <trkpt lat="44.67134" lon="0.12875">
        <ele>29</ele>
        <time>2025-04-18T11:54:32Z</time>
      </trkpt>
      <trkpt lat="44.67178" lon="0.12883">
        <ele>28</ele>
        <time>2025-04-18T11:54:24Z</time>
      </trkpt>
      <trkpt lat="44.67272" lon="0.12915">
        <ele>29</ele>
        <time>2025-04-18T11:54:07Z</time>
      </trkpt>
      <trkpt lat="44.67296" lon="0.12919">
        <ele>29</ele>
        <time>2025-04-18T11:54:03Z</time>
      </trkpt>
      <trkpt lat="44.67417" lon="0.12887">
        <ele>28</ele>
        <time>2025-04-18T11:53:41Z</time>
      </trkpt>
      <trkpt lat="44.67452" lon="0.12875">
        <ele>29</ele>
        <time>2025-04-18T11:53:34Z</time>
      </trkpt>
      <trkpt lat="44.67467" lon="0.12873">
        <ele>30</ele>
        <time>2025-04-18T11:53:32Z</time>
      </trkpt>
      <trkpt lat="44.67708" lon="0.12807">
        <ele>38</ele>
        <time>2025-04-18T11:52:48Z</time>
      </trkpt>
      <trkpt lat="44.67751" lon="0.12804">
        <ele>39</ele>
        <time>2025-04-18T11:52:40Z</time>
      </trkpt>
      <trkpt lat="44.68071" lon="0.12871">
        <ele>40</ele>
        <time>2025-04-18T11:51:43Z</time>
      </trkpt>
      <trkpt lat="44.68111" lon="0.12882">
        <ele>42</ele>
        <time>2025-04-18T11:51:35Z</time>
      </trkpt>
      <trkpt lat="44.68123" lon="0.12888">
        <ele>42</ele>
        <time>2025-04-18T11:51:33Z</time>
      </trkpt>
      <trkpt lat="44.68271" lon="0.12987">
        <ele>41</ele>
        <time>2025-04-18T11:51:04Z</time>
      </trkpt>
      <trkpt lat="44.68317" lon="0.13013">
        <ele>39</ele>
        <time>2025-04-18T11:50:55Z</time>
      </trkpt>
      <trkpt lat="44.68408" lon="0.13048">
        <ele>40</ele>
        <time>2025-04-18T11:50:38Z</time>
      </trkpt>
      <trkpt lat="44.68431" lon="0.13066">
        <ele>39</ele>
        <time>2025-04-18T11:50:34Z</time>
      </trkpt>
      <trkpt lat="44.68487" lon="0.13125">
        <ele>36</ele>
        <time>2025-04-18T11:50:21Z</time>
      </trkpt>
      <trkpt lat="44.68498" lon="0.13134">
        <ele>35</ele>
        <time>2025-04-18T11:50:19Z</time>
      </trkpt>
      <trkpt lat="44.6851" lon="0.1314">
        <ele>35</ele>
        <time>2025-04-18T11:50:17Z</time>
      </trkpt>
      <trkpt lat="44.68563" lon="0.13153">
        <ele>36</ele>
        <time>2025-04-18T11:50:07Z</time>
      </trkpt>
      <trkpt lat="44.68621" lon="0.13161">
        <ele>37</ele>
        <time>2025-04-18T11:49:57Z</time>
      </trkpt>
      <trkpt lat="44.68923" lon="0.13173">
        <ele>48</ele>
        <time>2025-04-18T11:49:03Z</time>
      </trkpt>
      <trkpt lat="44.68962" lon="0.13182">
        <ele>48</ele>
        <time>2025-04-18T11:48:56Z</time>
      </trkpt>
      <trkpt lat="44.68988" lon="0.13194">
        <ele>48</ele>
        <time>2025-04-18T11:48:51Z</time>
      </trkpt>
      <trkpt lat="44.69116" lon="0.13287">
        <ele>48</ele>
        <time>2025-04-18T11:48:25Z</time>
      </trkpt>
      <trkpt lat="44.69167" lon="0.13329">
        <ele>46</ele>
        <time>2025-04-18T11:48:15Z</time>
      </trkpt>
      <trkpt lat="44.69213" lon="0.13382">
        <ele>48</ele>
        <time>2025-04-18T11:48:04Z</time>
      </trkpt>
      <trkpt lat="44.69245" lon="0.13424">
        <ele>50</ele>
        <time>2025-04-18T11:47:57Z</time>
      </trkpt>
      <trkpt lat="44.69279" lon="0.13461">
        <ele>49</ele>
        <time>2025-04-18T11:47:49Z</time>
      </trkpt>
      <trkpt lat="44.69303" lon="0.13478">
        <ele>49</ele>
        <time>2025-04-18T11:47:44Z</time>
      </trkpt>
      <trkpt lat="44.69369" lon="0.13512">
        <ele>46</ele>
        <time>2025-04-18T11:47:32Z</time>
      </trkpt>
      <trkpt lat="44.69392" lon="0.1353">
        <ele>45</ele>
        <time>2025-04-18T11:47:27Z</time>
      </trkpt>
      <trkpt lat="44.69408" lon="0.13558">
        <ele>44</ele>
        <time>2025-04-18T11:47:22Z</time>
      </trkpt>
      <trkpt lat="44.6943" lon="0.13639">
        <ele>44</ele>
        <time>2025-04-18T11:47:11Z</time>
      </trkpt>
      <trkpt lat="44.69442" lon="0.13658">
        <ele>44</ele>
        <time>2025-04-18T11:47:08Z</time>
      </trkpt>
      <trkpt lat="44.69456" lon="0.13673">
        <ele>43</ele>
        <time>2025-04-18T11:47:05Z</time>
      </trkpt>
      <trkpt lat="44.69465" lon="0.1368">
        <ele>43</ele>
        <time>2025-04-18T11:47:03Z</time>
      </trkpt>
      <trkpt lat="44.69513" lon="0.13706">
        <ele>43</ele>
        <time>2025-04-18T11:46:54Z</time>
      </trkpt>
      <trkpt lat="44.69563" lon="0.1373">
        <ele>42</ele>
        <time>2025-04-18T11:46:45Z</time>
      </trkpt>
      <trkpt lat="44.69587" lon="0.13738">
        <ele>42</ele>
        <time>2025-04-18T11:46:40Z</time>
      </trkpt>
      <trkpt lat="44.69622" lon="0.13743">
        <ele>41</ele>
        <time>2025-04-18T11:46:34Z</time>
      </trkpt>
      <trkpt lat="44.6977" lon="0.13751">
        <ele>43</ele>
        <time>2025-04-18T11:46:08Z</time>
      </trkpt>
      <trkpt lat="44.69807" lon="0.13749">
        <ele>43</ele>
        <time>2025-04-18T11:46:01Z</time>
      </trkpt>
      <trkpt lat="44.69831" lon="0.13741">
        <ele>44</ele>
        <time>2025-04-18T11:45:57Z</time>
      </trkpt>
      <trkpt lat="44.69974" lon="0.13676">
        <ele>45</ele>
        <time>2025-04-18T11:45:30Z</time>
      </trkpt>
      <trkpt lat="44.70023" lon="0.13669">
        <ele>43</ele>
        <time>2025-04-18T11:45:21Z</time>
      </trkpt>
      <trkpt lat="44.70046" lon="0.1367">
        <ele>42</ele>
        <time>2025-04-18T11:45:17Z</time>
      </trkpt>
      <trkpt lat="44.70111" lon="0.13682">
        <ele>41</ele>
        <time>2025-04-18T11:45:05Z</time>
      </trkpt>
      <trkpt lat="44.70166" lon="0.13695">
        <ele>42</ele>
        <time>2025-04-18T11:44:56Z</time>
      </trkpt>
      <trkpt lat="44.70203" lon="0.13715">
        <ele>42</ele>
        <time>2025-04-18T11:44:49Z</time>
      </trkpt>
      <trkpt lat="44.70234" lon="0.13741">
        <ele>42</ele>
        <time>2025-04-18T11:44:42Z</time>
      </trkpt>
      <trkpt lat="44.70396" lon="0.13918">
        <ele>47</ele>
        <time>2025-04-18T11:44:06Z</time>
      </trkpt>
      <trkpt lat="44.7041" lon="0.13937">
        <ele>47</ele>
        <time>2025-04-18T11:44:02Z</time>
      </trkpt>
      <trkpt lat="44.70448" lon="0.13976">
        <ele>47</ele>
        <time>2025-04-18T11:43:54Z</time>
      </trkpt>
      <trkpt lat="44.70459" lon="0.13992">
        <ele>47</ele>
        <time>2025-04-18T11:43:51Z</time>
      </trkpt>
      <trkpt lat="44.70465" lon="0.13997">
        <ele>47</ele>
        <time>2025-04-18T11:43:50Z</time>
      </trkpt>
      <trkpt lat="44.7047" lon="0.13998">
        <ele>47</ele>
        <time>2025-04-18T11:43:49Z</time>
      </trkpt>
      <trkpt lat="44.70564" lon="0.13874">
        <ele>55</ele>
        <time>2025-04-18T11:43:26Z</time>
      </trkpt>
      <trkpt lat="44.70585" lon="0.1385">
        <ele>57</ele>
        <time>2025-04-18T11:43:21Z</time>
      </trkpt>
      <trkpt lat="44.70612" lon="0.1381">
        <ele>60</ele>
        <time>2025-04-18T11:43:14Z</time>
      </trkpt>
      <trkpt lat="44.70627" lon="0.1378">
        <ele>62</ele>
        <time>2025-04-18T11:43:09Z</time>
      </trkpt>
      <trkpt lat="44.70641" lon="0.13733">
        <ele>64</ele>
        <time>2025-04-18T11:43:03Z</time>
      </trkpt>
      <trkpt lat="44.70653" lon="0.13704">
        <ele>64</ele>
        <time>2025-04-18T11:42:59Z</time>
      </trkpt>
      <trkpt lat="44.70685" lon="0.13651">
        <ele>65</ele>
        <time>2025-04-18T11:42:50Z</time>
      </trkpt>
      <trkpt lat="44.70691" lon="0.13637">
        <ele>64</ele>
        <time>2025-04-18T11:42:48Z</time>
      </trkpt>
      <trkpt lat="44.70703" lon="0.13594">
        <ele>63</ele>
        <time>2025-04-18T11:42:42Z</time>
      </trkpt>
      <trkpt lat="44.70709" lon="0.13581">
        <ele>64</ele>
        <time>2025-04-18T11:42:40Z</time>
      </trkpt>
      <trkpt lat="44.70741" lon="0.13532">
        <ele>67</ele>
        <time>2025-04-18T11:42:32Z</time>
      </trkpt>
      <trkpt lat="44.70748" lon="0.13517">
        <ele>68</ele>
        <time>2025-04-18T11:42:29Z</time>
      </trkpt>
      <trkpt lat="44.70777" lon="0.13429">
        <ele>70</ele>
        <time>2025-04-18T11:42:17Z</time>
      </trkpt>
      <trkpt lat="44.70794" lon="0.13387">
        <ele>71</ele>
        <time>2025-04-18T11:42:11Z</time>
      </trkpt>
      <trkpt lat="44.70823" lon="0.1333">
        <ele>71</ele>
        <time>2025-04-18T11:42:02Z</time>
      </trkpt>
      <trkpt lat="44.70889" lon="0.13224">
        <ele>70</ele>
        <time>2025-04-18T11:41:44Z</time>
      </trkpt>
      <trkpt lat="44.7098" lon="0.13042">
        <ele>66</ele>
        <time>2025-04-18T11:41:16Z</time>
      </trkpt>
      <trkpt lat="44.70999" lon="0.13008">
        <ele>66</ele>
        <time>2025-04-18T11:41:11Z</time>
      </trkpt>
      <trkpt lat="44.7104" lon="0.12949">
        <ele>68</ele>
        <time>2025-04-18T11:41:00Z</time>
      </trkpt>
      <trkpt lat="44.71414" lon="0.12461">
        <ele>78</ele>
        <time>2025-04-18T11:39:30Z</time>
      </trkpt>
      <trkpt lat="44.71427" lon="0.12431">
        <ele>80</ele>
        <time>2025-04-18T11:39:25Z</time>
      </trkpt>
      <trkpt lat="44.71431" lon="0.12398">
        <ele>82</ele>
        <time>2025-04-18T11:39:21Z</time>
      </trkpt>
      <trkpt lat="44.71428" lon="0.12367">
        <ele>84</ele>
        <time>2025-04-18T11:39:17Z</time>
      </trkpt>
      <trkpt lat="44.71415" lon="0.12309">
        <ele>84</ele>
        <time>2025-04-18T11:39:09Z</time>
      </trkpt>
      <trkpt lat="44.71413" lon="0.12282">
        <ele>83</ele>
        <time>2025-04-18T11:39:06Z</time>
      </trkpt>
      <trkpt lat="44.7142" lon="0.12254">
        <ele>82</ele>
        <time>2025-04-18T11:39:02Z</time>
      </trkpt>
      <trkpt lat="44.71429" lon="0.1224">
        <ele>82</ele>
        <time>2025-04-18T11:39:00Z</time>
      </trkpt>
      <trkpt lat="44.71568" lon="0.1208">
        <ele>83</ele>
        <time>2025-04-18T11:38:28Z</time>
      </trkpt>
      <trkpt lat="44.7161" lon="0.12045">
        <ele>83</ele>
        <time>2025-04-18T11:38:19Z</time>
      </trkpt>
      <trkpt lat="44.71638" lon="0.12032">
        <ele>84</ele>
        <time>2025-04-18T11:38:14Z</time>
      </trkpt>
      <trkpt lat="44.71665" lon="0.12027">
        <ele>85</ele>
        <time>2025-04-18T11:38:09Z</time>
      </trkpt>
      <trkpt lat="44.71766" lon="0.12032">
        <ele>84</ele>
        <time>2025-04-18T11:37:51Z</time>
      </trkpt>
      <trkpt lat="44.71809" lon="0.1203">
        <ele>82</ele>
        <time>2025-04-18T11:37:43Z</time>
      </trkpt>
      <trkpt lat="44.71836" lon="0.12018">
        <ele>81</ele>
        <time>2025-04-18T11:37:38Z</time>
      </trkpt>
      <trkpt lat="44.71857" lon="0.11997">
        <ele>82</ele>
        <time>2025-04-18T11:37:34Z</time>
      </trkpt>
      <trkpt lat="44.71872" lon="0.11967">
        <ele>83</ele>
        <time>2025-04-18T11:37:29Z</time>
      </trkpt>
      <trkpt lat="44.7188" lon="0.11933">
        <ele>84</ele>
        <time>2025-04-18T11:37:25Z</time>
      </trkpt>
      <trkpt lat="44.71888" lon="0.11803">
        <ele>83</ele>
        <time>2025-04-18T11:37:08Z</time>
      </trkpt>
      <trkpt lat="44.71897" lon="0.11766">
        <ele>83</ele>
        <time>2025-04-18T11:37:03Z</time>
      </trkpt>
      <trkpt lat="44.71912" lon="0.11735">
        <ele>83</ele>
        <time>2025-04-18T11:36:58Z</time>
      </trkpt>
      <trkpt lat="44.72184" lon="0.11342">
        <ele>100</ele>
        <time>2025-04-18T11:35:49Z</time>
      </trkpt>
      <trkpt lat="44.72254" lon="0.11245">
        <ele>104</ele>
        <time>2025-04-18T11:35:31Z</time>
      </trkpt>
      <trkpt lat="44.72271" lon="0.11213">
        <ele>107</ele>
        <time>2025-04-18T11:35:26Z</time>
      </trkpt>
      <trkpt lat="44.72281" lon="0.11177">
        <ele>109</ele>
        <time>2025-04-18T11:35:22Z</time>
      </trkpt>
      <trkpt lat="44.72281" lon="0.1114">
        <ele>111</ele>
        <time>2025-04-18T11:35:17Z</time>
      </trkpt>
      <trkpt lat="44.72278" lon="0.11122">
        <ele>111</ele>
        <time>2025-04-18T11:35:15Z</time>
      </trkpt>
      <trkpt lat="44.72264" lon="0.11072">
        <ele>112</ele>
        <time>2025-04-18T11:35:08Z</time>
      </trkpt>
      <trkpt lat="44.72186" lon="0.10834">
        <ele>112</ele>
        <time>2025-04-18T11:34:35Z</time>
      </trkpt>
      <trkpt lat="44.72177" lon="0.10788">
        <ele>111</ele>
        <time>2025-04-18T11:34:29Z</time>
      </trkpt>
      <trkpt lat="44.72177" lon="0.10773">
        <ele>111</ele>
        <time>2025-04-18T11:34:27Z</time>
      </trkpt>
      <trkpt lat="44.72184" lon="0.10729">
        <ele>111</ele>
        <time>2025-04-18T11:34:21Z</time>
      </trkpt>
      <trkpt lat="44.72227" lon="0.10557">
        <ele>109</ele>
        <time>2025-04-18T11:33:58Z</time>
      </trkpt>
      <trkpt lat="44.72234" lon="0.10537">
        <ele>108</ele>
        <time>2025-04-18T11:33:55Z</time>
      </trkpt>
      <trkpt lat="44.72234" lon="0.10524">
        <ele>107</ele>
        <time>2025-04-18T11:33:53Z</time>
      </trkpt>
      <trkpt lat="44.72225" lon="0.10505">
        <ele>106</ele>
        <time>2025-04-18T11:33:51Z</time>
      </trkpt>
      <trkpt lat="44.72204" lon="0.10472">
        <ele>105</ele>
        <time>2025-04-18T11:33:45Z</time>
      </trkpt>
      <trkpt lat="44.71965" lon="0.1018">
        <ele>108</ele>
        <time>2025-04-18T11:32:49Z</time>
      </trkpt>
      <trkpt lat="44.71935" lon="0.10137">
        <ele>109</ele>
        <time>2025-04-18T11:32:41Z</time>
      </trkpt>
      <trkpt lat="44.71916" lon="0.10105">
        <ele>110</ele>
        <time>2025-04-18T11:32:36Z</time>
      </trkpt>
      <trkpt lat="44.71885" lon="0.10039">
        <ele>112</ele>
        <time>2025-04-18T11:32:26Z</time>
      </trkpt>
      <trkpt lat="44.71753" lon="0.09642">
        <ele>109</ele>
        <time>2025-04-18T11:31:30Z</time>
      </trkpt>
      <trkpt lat="44.7174" lon="0.09609">
        <ele>110</ele>
        <time>2025-04-18T11:31:26Z</time>
      </trkpt>
      <trkpt lat="44.71732" lon="0.09595">
        <ele>110</ele>
        <time>2025-04-18T11:31:23Z</time>
      </trkpt>
      <trkpt lat="44.71714" lon="0.09572">
        <ele>112</ele>
        <time>2025-04-18T11:31:19Z</time>
      </trkpt>
      <trkpt lat="44.71694" lon="0.0956">
        <ele>114</ele>
        <time>2025-04-18T11:31:15Z</time>
      </trkpt>
      <trkpt lat="44.71613" lon="0.09544">
        <ele>115</ele>
        <time>2025-04-18T11:31:01Z</time>
      </trkpt>
      <trkpt lat="44.71604" lon="0.09537">
        <ele>115</ele>
        <time>2025-04-18T11:30:59Z</time>
      </trkpt>
      <trkpt lat="44.71602" lon="0.09532">
        <ele>115</ele>
        <time>2025-04-18T11:30:58Z</time>
      </trkpt>
      <trkpt lat="44.71656" lon="0.09409">
        <ele>117</ele>
        <time>2025-04-18T11:30:40Z</time>
      </trkpt>
      <trkpt lat="44.7167" lon="0.09361">
        <ele>118</ele>
        <time>2025-04-18T11:30:33Z</time>
      </trkpt>
      <trkpt lat="44.71675" lon="0.09326">
        <ele>117</ele>
        <time>2025-04-18T11:30:29Z</time>
      </trkpt>
      <trkpt lat="44.71675" lon="0.09288">
        <ele>117</ele>
        <time>2025-04-18T11:30:24Z</time>
      </trkpt>
      <trkpt lat="44.71665" lon="0.09203">
        <ele>118</ele>
        <time>2025-04-18T11:30:13Z</time>
      </trkpt>
      <trkpt lat="44.7162" lon="0.08895">
        <ele>116</ele>
        <time>2025-04-18T11:29:33Z</time>
      </trkpt>
      <trkpt lat="44.71605" lon="0.08821">
        <ele>114</ele>
        <time>2025-04-18T11:29:23Z</time>
      </trkpt>
      <trkpt lat="44.7159" lon="0.08776">
        <ele>114</ele>
        <time>2025-04-18T11:29:17Z</time>
      </trkpt>
      <trkpt lat="44.71465" lon="0.0845">
        <ele>120</ele>
        <time>2025-04-18T11:28:30Z</time>
      </trkpt>
      <trkpt lat="44.71448" lon="0.08412">
        <ele>122</ele>
        <time>2025-04-18T11:28:25Z</time>
      </trkpt>
      <trkpt lat="44.71424" lon="0.08382">
        <ele>124</ele>
        <time>2025-04-18T11:28:19Z</time>
      </trkpt>
      <trkpt lat="44.71411" lon="0.08372">
        <ele>125</ele>
        <time>2025-04-18T11:28:16Z</time>
      </trkpt>
      <trkpt lat="44.71039" lon="0.08114">
        <ele>122</ele>
        <time>2025-04-18T11:27:03Z</time>
      </trkpt>
      <trkpt lat="44.71025" lon="0.08103">
        <ele>122</ele>
        <time>2025-04-18T11:27:00Z</time>
      </trkpt>
      <trkpt lat="44.7099" lon="0.08061">
        <ele>120</ele>
        <time>2025-04-18T11:26:51Z</time>
      </trkpt>
      <trkpt lat="44.7098" lon="0.08044">
        <ele>120</ele>
        <time>2025-04-18T11:26:49Z</time>
      </trkpt>
      <trkpt lat="44.70948" lon="0.07973">
        <ele>118</ele>
        <time>2025-04-18T11:26:38Z</time>
      </trkpt>
      <trkpt lat="44.70765" lon="0.07508">
        <ele>109</ele>
        <time>2025-04-18T11:25:31Z</time>
      </trkpt>
      <trkpt lat="44.70748" lon="0.07467">
        <ele>109</ele>
        <time>2025-04-18T11:25:25Z</time>
      </trkpt>
      <trkpt lat="44.70719" lon="0.0741">
        <ele>110</ele>
        <time>2025-04-18T11:25:16Z</time>
      </trkpt>
      <trkpt lat="44.70686" lon="0.07361">
        <ele>110</ele>
        <time>2025-04-18T11:25:07Z</time>
      </trkpt>
      <trkpt lat="44.7065" lon="0.07316">
        <ele>112</ele>
        <time>2025-04-18T11:24:59Z</time>
      </trkpt>
      <trkpt lat="44.70483" lon="0.07138">
        <ele>115</ele>
        <time>2025-04-18T11:24:22Z</time>
      </trkpt>
      <trkpt lat="44.70423" lon="0.07065">
        <ele>112</ele>
        <time>2025-04-18T11:24:07Z</time>
      </trkpt>
      <trkpt lat="44.70326" lon="0.06912">
        <ele>106</ele>
        <time>2025-04-18T11:23:42Z</time>
      </trkpt>
      <trkpt lat="44.70229" lon="0.06753">
        <ele>104</ele>
        <time>2025-04-18T11:23:15Z</time>
      </trkpt>
      <trkpt lat="44.70128" lon="0.06594">
        <ele>108</ele>
        <time>2025-04-18T11:22:48Z</time>
      </trkpt>
      <trkpt lat="44.70109" lon="0.06569">
        <ele>108</ele>
        <time>2025-04-18T11:22:43Z</time>
      </trkpt>
      <trkpt lat="44.70089" lon="0.06551">
        <ele>108</ele>
        <time>2025-04-18T11:22:39Z</time>
      </trkpt>
      <trkpt lat="44.70067" lon="0.06539">
        <ele>108</ele>
        <time>2025-04-18T11:22:35Z</time>
      </trkpt>
      <trkpt lat="44.70054" lon="0.06535">
        <ele>108</ele>
        <time>2025-04-18T11:22:33Z</time>
      </trkpt>
      <trkpt lat="44.69867" lon="0.0651">
        <ele>105</ele>
        <time>2025-04-18T11:21:59Z</time>
      </trkpt>
      <trkpt lat="44.69817" lon="0.06496">
        <ele>106</ele>
        <time>2025-04-18T11:21:50Z</time>
      </trkpt>
      <trkpt lat="44.69772" lon="0.06473">
        <ele>106</ele>
        <time>2025-04-18T11:21:42Z</time>
      </trkpt>
      <trkpt lat="44.69658" lon="0.06389">
        <ele>107</ele>
        <time>2025-04-18T11:21:19Z</time>
      </trkpt>
      <trkpt lat="44.69579" lon="0.06327">
        <ele>111</ele>
        <time>2025-04-18T11:21:03Z</time>
      </trkpt>
      <trkpt lat="44.69525" lon="0.06281">
        <ele>110</ele>
        <time>2025-04-18T11:20:51Z</time>
      </trkpt>
      <trkpt lat="44.69474" lon="0.06227">
        <ele>108</ele>
        <time>2025-04-18T11:20:40Z</time>
      </trkpt>
      <trkpt lat="44.69444" lon="0.0619">
        <ele>106</ele>
        <time>2025-04-18T11:20:33Z</time>
      </trkpt>
      <trkpt lat="44.69421" lon="0.06146">
        <ele>103</ele>
        <time>2025-04-18T11:20:26Z</time>
      </trkpt>
      <trkpt lat="44.69408" lon="0.06101">
        <ele>102</ele>
        <time>2025-04-18T11:20:20Z</time>
      </trkpt>
      <trkpt lat="44.69404" lon="0.06071">
        <ele>101</ele>
        <time>2025-04-18T11:20:16Z</time>
      </trkpt>
      <trkpt lat="44.69356" lon="0.05842">
        <ele>97</ele>
        <time>2025-04-18T11:19:46Z</time>
      </trkpt>
      <trkpt lat="44.69355" lon="0.05819">
        <ele>96</ele>
        <time>2025-04-18T11:19:43Z</time>
      </trkpt>
      <trkpt lat="44.69368" lon="0.05788">
        <ele>94</ele>
        <time>2025-04-18T11:19:38Z</time>
      </trkpt>
      <trkpt lat="44.69381" lon="0.05767">
        <ele>94</ele>
        <time>2025-04-18T11:19:35Z</time>
      </trkpt>
      <trkpt lat="44.69392" lon="0.05743">
        <ele>94</ele>
        <time>2025-04-18T11:19:31Z</time>
      </trkpt>
      <trkpt lat="44.6943" lon="0.05627">
        <ele>93</ele>
        <time>2025-04-18T11:19:15Z</time>
      </trkpt>
      <trkpt lat="44.69447" lon="0.05561">
        <ele>91</ele>
        <time>2025-04-18T11:19:06Z</time>
      </trkpt>
      <trkpt lat="44.69443" lon="0.05534">
        <ele>89</ele>
        <time>2025-04-18T11:19:03Z</time>
      </trkpt>
      <trkpt lat="44.69444" lon="0.05516">
        <ele>88</ele>
        <time>2025-04-18T11:19:00Z</time>
      </trkpt>
      <trkpt lat="44.6944" lon="0.05477">
        <ele>87</ele>
        <time>2025-04-18T11:18:55Z</time>
      </trkpt>
      <trkpt lat="44.69432" lon="0.05417">
        <ele>85</ele>
        <time>2025-04-18T11:18:48Z</time>
      </trkpt>
      <trkpt lat="44.69435" lon="0.05353">
        <ele>82</ele>
        <time>2025-04-18T11:18:40Z</time>
      </trkpt>
      <trkpt lat="44.69448" lon="0.05294">
        <ele>81</ele>
        <time>2025-04-18T11:18:32Z</time>
      </trkpt>
      <trkpt lat="44.69498" lon="0.05118">
        <ele>84</ele>
        <time>2025-04-18T11:18:08Z</time>
      </trkpt>
      <trkpt lat="44.69508" lon="0.05076">
        <ele>87</ele>
        <time>2025-04-18T11:18:02Z</time>
      </trkpt>
      <trkpt lat="44.69516" lon="0.05032">
        <ele>89</ele>
        <time>2025-04-18T11:17:57Z</time>
      </trkpt>
      <trkpt lat="44.69519" lon="0.04987">
        <ele>92</ele>
        <time>2025-04-18T11:17:51Z</time>
      </trkpt>
      <trkpt lat="44.69516" lon="0.04891">
        <ele>96</ele>
        <time>2025-04-18T11:17:39Z</time>
      </trkpt>
      <trkpt lat="44.69506" lon="0.0477">
        <ele>100</ele>
        <time>2025-04-18T11:17:23Z</time>
      </trkpt>
      <trkpt lat="44.69469" lon="0.04214">
        <ele>104</ele>
        <time>2025-04-18T11:16:13Z</time>
      </trkpt>
      <trkpt lat="44.69464" lon="0.04165">
        <ele>103</ele>
        <time>2025-04-18T11:16:06Z</time>
      </trkpt>
      <trkpt lat="44.69459" lon="0.04142">
        <ele>104</ele>
        <time>2025-04-18T11:16:03Z</time>
      </trkpt>
      <trkpt lat="44.69447" lon="0.04098">
        <ele>106</ele>
        <time>2025-04-18T11:15:57Z</time>
      </trkpt>
      <trkpt lat="44.69439" lon="0.04078">
        <ele>106</ele>
        <time>2025-04-18T11:15:54Z</time>
      </trkpt>
      <trkpt lat="44.69335" lon="0.0386">
        <ele>111</ele>
        <time>2025-04-18T11:15:21Z</time>
      </trkpt>
      <trkpt lat="44.69107" lon="0.03474">
        <ele>109</ele>
        <time>2025-04-18T11:14:18Z</time>
      </trkpt>
      <trkpt lat="44.69083" lon="0.03437">
        <ele>106</ele>
        <time>2025-04-18T11:14:11Z</time>
      </trkpt>
      <trkpt lat="44.6905" lon="0.03377">
        <ele>101</ele>
        <time>2025-04-18T11:14:02Z</time>
      </trkpt>
      <trkpt lat="44.69041" lon="0.03356">
        <ele>100</ele>
        <time>2025-04-18T11:13:59Z</time>
      </trkpt>
      <trkpt lat="44.69027" lon="0.03314">
        <ele>98</ele>
        <time>2025-04-18T11:13:53Z</time>
      </trkpt>
      <trkpt lat="44.68961" lon="0.03072">
        <ele>93</ele>
        <time>2025-04-18T11:13:20Z</time>
      </trkpt>
      <trkpt lat="44.68898" lon="0.02832">
        <ele>94</ele>
        <time>2025-04-18T11:12:48Z</time>
      </trkpt>
      <trkpt lat="44.6884" lon="0.02599">
        <ele>94</ele>
        <time>2025-04-18T11:12:16Z</time>
      </trkpt>
      <trkpt lat="44.68807" lon="0.02487">
        <ele>92</ele>
        <time>2025-04-18T11:12:01Z</time>
      </trkpt>
      <trkpt lat="44.68791" lon="0.02446">
        <ele>93</ele>
        <time>2025-04-18T11:11:55Z</time>
      </trkpt>
      <trkpt lat="44.68741" lon="0.02353">
        <ele>97</ele>
        <time>2025-04-18T11:11:40Z</time>
      </trkpt>
      <trkpt lat="44.68447" lon="0.01853">
        <ele>91</ele>
        <time>2025-04-18T11:10:18Z</time>
      </trkpt>
      <trkpt lat="44.68388" lon="0.01761">
        <ele>92</ele>
        <time>2025-04-18T11:10:03Z</time>
      </trkpt>
      <trkpt lat="44.68367" lon="0.01723">
        <ele>93</ele>
        <time>2025-04-18T11:09:57Z</time>
      </trkpt>
      <trkpt lat="44.68271" lon="0.01526">
        <ele>95</ele>
        <time>2025-04-18T11:09:26Z</time>
      </trkpt>
      <trkpt lat="44.68131" lon="0.0123">
        <ele>97</ele>
        <time>2025-04-18T11:08:41Z</time>
      </trkpt>
      <trkpt lat="44.67929" lon="0.00816">
        <ele>93</ele>
        <time>2025-04-18T11:07:38Z</time>
      </trkpt>
      <trkpt lat="44.67905" lon="0.00761">
        <ele>93</ele>
        <time>2025-04-18T11:07:30Z</time>
      </trkpt>
      <trkpt lat="44.67895" lon="0.00721">
        <ele>92</ele>
        <time>2025-04-18T11:07:24Z</time>
      </trkpt>
      <trkpt lat="44.67867" lon="0.005">
        <ele>90</ele>
        <time>2025-04-18T11:06:56Z</time>
      </trkpt>
      <trkpt lat="44.67814" lon="0.00177">
        <ele>85</ele>
        <time>2025-04-18T11:06:14Z</time>
      </trkpt>
      <trkpt lat="44.67806" lon="0.00114">
        <ele>85</ele>
        <time>2025-04-18T11:06:06Z</time>
      </trkpt>
      <trkpt lat="44.67807" lon="0.00055">
        <ele>85</ele>
        <time>2025-04-18T11:05:58Z</time>
      </trkpt>
      <trkpt lat="44.6782" lon="-0.00069">
        <ele>82</ele>
        <time>2025-04-18T11:05:43Z</time>
      </trkpt>
      <trkpt lat="44.67822" lon="-0.00106">
        <ele>81</ele>
        <time>2025-04-18T11:05:38Z</time>
      </trkpt>
      <trkpt lat="44.6782" lon="-0.00141">
        <ele>80</ele>
        <time>2025-04-18T11:05:33Z</time>
      </trkpt>
      <trkpt lat="44.67812" lon="-0.00172">
        <ele>80</ele>
        <time>2025-04-18T11:05:29Z</time>
      </trkpt>
      <trkpt lat="44.67773" lon="-0.00267">
        <ele>77</ele>
        <time>2025-04-18T11:05:15Z</time>
      </trkpt>
      <trkpt lat="44.67758" lon="-0.00289">
        <ele>77</ele>
        <time>2025-04-18T11:05:12Z</time>
      </trkpt>
      <trkpt lat="44.67728" lon="-0.00319">
        <ele>76</ele>
        <time>2025-04-18T11:05:05Z</time>
      </trkpt>
      <trkpt lat="44.67723" lon="-0.00329">
        <ele>75</ele>
        <time>2025-04-18T11:05:03Z</time>
      </trkpt>
      <trkpt lat="44.67721" lon="-0.00341">
        <ele>75</ele>
        <time>2025-04-18T11:05:02Z</time>
      </trkpt>
      <trkpt lat="44.67738" lon="-0.00469">
        <ele>70</ele>
        <time>2025-04-18T11:04:45Z</time>
      </trkpt>
      <trkpt lat="44.67757" lon="-0.00552">
        <ele>68</ele>
        <time>2025-04-18T11:04:34Z</time>
      </trkpt>
      <trkpt lat="44.6776" lon="-0.00575">
        <ele>67</ele>
        <time>2025-04-18T11:04:31Z</time>
      </trkpt>
      <trkpt lat="44.67755" lon="-0.00594">
        <ele>66</ele>
        <time>2025-04-18T11:04:29Z</time>
      </trkpt>
      <trkpt lat="44.67745" lon="-0.00607">
        <ele>66</ele>
        <time>2025-04-18T11:04:26Z</time>
      </trkpt>
      <trkpt lat="44.67702" lon="-0.0064">
        <ele>63</ele>
        <time>2025-04-18T11:04:18Z</time>
      </trkpt>
      <trkpt lat="44.67651" lon="-0.00675">
        <ele>62</ele>
        <time>2025-04-18T11:04:08Z</time>
      </trkpt>
      <trkpt lat="44.67644" lon="-0.00687">
        <ele>62</ele>
        <time>2025-04-18T11:04:06Z</time>
      </trkpt>
      <trkpt lat="44.67643" lon="-0.00695">
        <ele>62</ele>
        <time>2025-04-18T11:04:05Z</time>
      </trkpt>
      <trkpt lat="44.67651" lon="-0.00723">
        <ele>60</ele>
        <time>2025-04-18T11:04:01Z</time>
      </trkpt>
      <trkpt lat="44.67661" lon="-0.00782">
        <ele>58</ele>
        <time>2025-04-18T11:03:53Z</time>
      </trkpt>
      <trkpt lat="44.67667" lon="-0.0084">
        <ele>59</ele>
        <time>2025-04-18T11:03:46Z</time>
      </trkpt>
      <trkpt lat="44.67664" lon="-0.00858">
        <ele>59</ele>
        <time>2025-04-18T11:03:43Z</time>
      </trkpt>
      <trkpt lat="44.67657" lon="-0.00868">
        <ele>60</ele>
        <time>2025-04-18T11:03:42Z</time>
      </trkpt>
      <trkpt lat="44.67639" lon="-0.00878">
        <ele>60</ele>
        <time>2025-04-18T11:03:38Z</time>
      </trkpt>
      <trkpt lat="44.67497" lon="-0.00936">
        <ele>68</ele>
        <time>2025-04-18T11:03:12Z</time>
      </trkpt>
      <trkpt lat="44.67292" lon="-0.01024">
        <ele>65</ele>
        <time>2025-04-18T11:02:34Z</time>
      </trkpt>
      <trkpt lat="44.67247" lon="-0.01049">
        <ele>64</ele>
        <time>2025-04-18T11:02:25Z</time>
      </trkpt>
      <trkpt lat="44.67166" lon="-0.01105">
        <ele>62</ele>
        <time>2025-04-18T11:02:09Z</time>
      </trkpt>
      <trkpt lat="44.6711" lon="-0.01132">
        <ele>61</ele>
        <time>2025-04-18T11:01:59Z</time>
      </trkpt>
      <trkpt lat="44.67096" lon="-0.01137">
        <ele>61</ele>
        <time>2025-04-18T11:01:56Z</time>
      </trkpt>
      <trkpt lat="44.67069" lon="-0.01136">
        <ele>60</ele>
        <time>2025-04-18T11:01:51Z</time>
      </trkpt>
      <trkpt lat="44.67005" lon="-0.01114">
        <ele>56</ele>
        <time>2025-04-18T11:01:39Z</time>
      </trkpt>
      <trkpt lat="44.66981" lon="-0.01116">
        <ele>55</ele>
        <time>2025-04-18T11:01:35Z</time>
      </trkpt>
      <trkpt lat="44.66971" lon="-0.01121">
        <ele>54</ele>
        <time>2025-04-18T11:01:33Z</time>
      </trkpt>
      <trkpt lat="44.66961" lon="-0.01129">
        <ele>53</ele>
        <time>2025-04-18T11:01:31Z</time>
      </trkpt>
      <trkpt lat="44.66947" lon="-0.01151">
        <ele>52</ele>
        <time>2025-04-18T11:01:28Z</time>
      </trkpt>
      <trkpt lat="44.6691" lon="-0.01271">
        <ele>51</ele>
        <time>2025-04-18T11:01:11Z</time>
      </trkpt>
      <trkpt lat="44.6688" lon="-0.01338">
        <ele>47</ele>
        <time>2025-04-18T11:01:01Z</time>
      </trkpt>
      <trkpt lat="44.6687" lon="-0.01374">
        <ele>45</ele>
        <time>2025-04-18T11:00:56Z</time>
      </trkpt>
      <trkpt lat="44.6686" lon="-0.01426">
        <ele>44</ele>
        <time>2025-04-18T11:00:49Z</time>
      </trkpt>
      <trkpt lat="44.66847" lon="-0.01472">
        <ele>44</ele>
        <time>2025-04-18T11:00:43Z</time>
      </trkpt>
      <trkpt lat="44.66834" lon="-0.015">
        <ele>43</ele>
        <time>2025-04-18T11:00:39Z</time>
      </trkpt>
      <trkpt lat="44.66814" lon="-0.0152">
        <ele>42</ele>
        <time>2025-04-18T11:00:34Z</time>
      </trkpt>
      <trkpt lat="44.66802" lon="-0.01527">
        <ele>41</ele>
        <time>2025-04-18T11:00:32Z</time>
      </trkpt>
      <trkpt lat="44.6679" lon="-0.01529">
        <ele>40</ele>
        <time>2025-04-18T11:00:30Z</time>
      </trkpt>
      <trkpt lat="44.66777" lon="-0.01528">
        <ele>38</ele>
        <time>2025-04-18T11:00:28Z</time>
      </trkpt>
      <trkpt lat="44.66702" lon="-0.01503">
        <ele>37</ele>
        <time>2025-04-18T11:00:14Z</time>
      </trkpt>
      <trkpt lat="44.66656" lon="-0.01483">
        <ele>40</ele>
        <time>2025-04-18T11:00:05Z</time>
      </trkpt>
      <trkpt lat="44.66599" lon="-0.01448">
        <ele>46</ele>
        <time>2025-04-18T10:59:54Z</time>
      </trkpt>
      <trkpt lat="44.6657" lon="-0.01438">
        <ele>48</ele>
        <time>2025-04-18T10:59:49Z</time>
      </trkpt>
      <trkpt lat="44.66492" lon="-0.01431">
        <ele>52</ele>
        <time>2025-04-18T10:59:35Z</time>
      </trkpt>
      <trkpt lat="44.66462" lon="-0.01433">
        <ele>54</ele>
        <time>2025-04-18T10:59:30Z</time>
      </trkpt>
      <trkpt lat="44.66434" lon="-0.0144">
        <ele>55</ele>
        <time>2025-04-18T10:59:25Z</time>
      </trkpt>
      <trkpt lat="44.66407" lon="-0.01452">
        <ele>56</ele>
        <time>2025-04-18T10:59:20Z</time>
      </trkpt>
      <trkpt lat="44.66314" lon="-0.01501">
        <ele>57</ele>
        <time>2025-04-18T10:59:02Z</time>
      </trkpt>
      <trkpt lat="44.65751" lon="-0.01803">
        <ele>60</ele>
        <time>2025-04-18T10:57:15Z</time>
      </trkpt>
      <trkpt lat="44.65612" lon="-0.01875">
        <ele>56</ele>
        <time>2025-04-18T10:56:48Z</time>
      </trkpt>
      <trkpt lat="44.65343" lon="-0.02021">
        <ele>58</ele>
        <time>2025-04-18T10:55:57Z</time>
      </trkpt>
      <trkpt lat="44.65311" lon="-0.02035">
        <ele>58</ele>
        <time>2025-04-18T10:55:51Z</time>
      </trkpt>
      <trkpt lat="44.6528" lon="-0.02046">
        <ele>58</ele>
        <time>2025-04-18T10:55:45Z</time>
      </trkpt>
      <trkpt lat="44.6497" lon="-0.02127">
        <ele>55</ele>
        <time>2025-04-18T10:54:49Z</time>
      </trkpt>
      <trkpt lat="44.64783" lon="-0.0218">
        <ele>53</ele>
        <time>2025-04-18T10:54:15Z</time>
      </trkpt>
      <trkpt lat="44.64599" lon="-0.02229">
        <ele>52</ele>
        <time>2025-04-18T10:53:42Z</time>
      </trkpt>
      <trkpt lat="44.64539" lon="-0.02248">
        <ele>52</ele>
        <time>2025-04-18T10:53:31Z</time>
      </trkpt>
      <trkpt lat="44.64525" lon="-0.02255">
        <ele>52</ele>
        <time>2025-04-18T10:53:28Z</time>
      </trkpt>
      <trkpt lat="44.645" lon="-0.02275">
        <ele>52</ele>
        <time>2025-04-18T10:53:23Z</time>
      </trkpt>
      <trkpt lat="44.64349" lon="-0.0244">
        <ele>46</ele>
        <time>2025-04-18T10:52:49Z</time>
      </trkpt>
      <trkpt lat="44.64331" lon="-0.02469">
        <ele>45</ele>
        <time>2025-04-18T10:52:44Z</time>
      </trkpt>
      <trkpt lat="44.64324" lon="-0.02486">
        <ele>45</ele>
        <time>2025-04-18T10:52:42Z</time>
      </trkpt>
      <trkpt lat="44.64318" lon="-0.02502">
        <ele>44</ele>
        <time>2025-04-18T10:52:40Z</time>
      </trkpt>
      <trkpt lat="44.64311" lon="-0.02533">
        <ele>44</ele>
        <time>2025-04-18T10:52:36Z</time>
      </trkpt>
      <trkpt lat="44.64303" lon="-0.02593">
        <ele>43</ele>
        <time>2025-04-18T10:52:28Z</time>
      </trkpt>
      <trkpt lat="44.64308" lon="-0.0273">
        <ele>44</ele>
        <time>2025-04-18T10:52:10Z</time>
      </trkpt>
      <trkpt lat="44.64295" lon="-0.02843">
        <ele>41</ele>
        <time>2025-04-18T10:51:56Z</time>
      </trkpt>
      <trkpt lat="44.64285" lon="-0.02899">
        <ele>37</ele>
        <time>2025-04-18T10:51:49Z</time>
      </trkpt>
      <trkpt lat="44.64247" lon="-0.03027">
        <ele>26</ele>
        <time>2025-04-18T10:51:31Z</time>
      </trkpt>
      <trkpt lat="44.64231" lon="-0.03051">
        <ele>24</ele>
        <time>2025-04-18T10:51:27Z</time>
      </trkpt>
      <trkpt lat="44.64119" lon="-0.03145">
        <ele>19</ele>
        <time>2025-04-18T10:51:04Z</time>
      </trkpt>
      <trkpt lat="44.64096" lon="-0.0317">
        <ele>18</ele>
        <time>2025-04-18T10:50:59Z</time>
      </trkpt>
      <trkpt lat="44.64088" lon="-0.03185">
        <ele>18</ele>
        <time>2025-04-18T10:50:56Z</time>
      </trkpt>
      <trkpt lat="44.64081" lon="-0.03202">
        <ele>18</ele>
        <time>2025-04-18T10:50:54Z</time>
      </trkpt>
      <trkpt lat="44.63996" lon="-0.03486">
        <ele>31</ele>
        <time>2025-04-18T10:50:15Z</time>
      </trkpt>
      <trkpt lat="44.63953" lon="-0.03611">
        <ele>28</ele>
        <time>2025-04-18T10:49:57Z</time>
      </trkpt>
      <trkpt lat="44.6392" lon="-0.03716">
        <ele>28</ele>
        <time>2025-04-18T10:49:43Z</time>
      </trkpt>
      <trkpt lat="44.63903" lon="-0.03743">
        <ele>28</ele>
        <time>2025-04-18T10:49:38Z</time>
      </trkpt>
      <trkpt lat="44.63892" lon="-0.03753">
        <ele>28</ele>
        <time>2025-04-18T10:49:36Z</time>
      </trkpt>
      <trkpt lat="44.6388" lon="-0.03762">
        <ele>28</ele>
        <time>2025-04-18T10:49:33Z</time>
      </trkpt>
      <trkpt lat="44.6384" lon="-0.03782">
        <ele>26</ele>
        <time>2025-04-18T10:49:26Z</time>
      </trkpt>
      <trkpt lat="44.63816" lon="-0.03804">
        <ele>26</ele>
        <time>2025-04-18T10:49:21Z</time>
      </trkpt>
      <trkpt lat="44.63786" lon="-0.03846">
        <ele>24</ele>
        <time>2025-04-18T10:49:13Z</time>
      </trkpt>
      <trkpt lat="44.63752" lon="-0.03905">
        <ele>23</ele>
        <time>2025-04-18T10:49:03Z</time>
      </trkpt>
      <trkpt lat="44.63649" lon="-0.04026">
        <ele>25</ele>
        <time>2025-04-18T10:48:40Z</time>
      </trkpt>
      <trkpt lat="44.63624" lon="-0.04046">
        <ele>23</ele>
        <time>2025-04-18T10:48:34Z</time>
      </trkpt>
      <trkpt lat="44.63572" lon="-0.0408">
        <ele>19</ele>
        <time>2025-04-18T10:48:24Z</time>
      </trkpt>
      <trkpt lat="44.63561" lon="-0.04093">
        <ele>19</ele>
        <time>2025-04-18T10:48:22Z</time>
      </trkpt>
      <trkpt lat="44.63551" lon="-0.04107">
        <ele>19</ele>
        <time>2025-04-18T10:48:19Z</time>
      </trkpt>
      <trkpt lat="44.63518" lon="-0.04169">
        <ele>17</ele>
        <time>2025-04-18T10:48:09Z</time>
      </trkpt>
      <trkpt lat="44.63436" lon="-0.04311">
        <ele>20</ele>
        <time>2025-04-18T10:47:46Z</time>
      </trkpt>
      <trkpt lat="44.63354" lon="-0.04427">
        <ele>21</ele>
        <time>2025-04-18T10:47:25Z</time>
      </trkpt>
      <trkpt lat="44.63296" lon="-0.04519">
        <ele>19</ele>
        <time>2025-04-18T10:47:10Z</time>
      </trkpt>
      <trkpt lat="44.63286" lon="-0.04555">
        <ele>20</ele>
        <time>2025-04-18T10:47:05Z</time>
      </trkpt>
      <trkpt lat="44.63275" lon="-0.04625">
        <ele>21</ele>
        <time>2025-04-18T10:46:56Z</time>
      </trkpt>
      <trkpt lat="44.63238" lon="-0.04712">
        <ele>20</ele>
        <time>2025-04-18T10:46:43Z</time>
      </trkpt>
      <trkpt lat="44.63226" lon="-0.04748">
        <ele>20</ele>
        <time>2025-04-18T10:46:38Z</time>
      </trkpt>
      <trkpt lat="44.6322" lon="-0.04784">
        <ele>21</ele>
        <time>2025-04-18T10:46:33Z</time>
      </trkpt>
      <trkpt lat="44.63217" lon="-0.04843">
        <ele>24</ele>
        <time>2025-04-18T10:46:26Z</time>
      </trkpt>
      <trkpt lat="44.63212" lon="-0.04884">
        <ele>24</ele>
        <time>2025-04-18T10:46:21Z</time>
      </trkpt>
      <trkpt lat="44.63197" lon="-0.04961">
        <ele>25</ele>
        <time>2025-04-18T10:46:11Z</time>
      </trkpt>
      <trkpt lat="44.63183" lon="-0.05016">
        <ele>26</ele>
        <time>2025-04-18T10:46:03Z</time>
      </trkpt>
      <trkpt lat="44.63126" lon="-0.05148">
        <ele>24</ele>
        <time>2025-04-18T10:45:44Z</time>
      </trkpt>
      <trkpt lat="44.63094" lon="-0.05233">
        <ele>22</ele>
        <time>2025-04-18T10:45:31Z</time>
      </trkpt>
      <trkpt lat="44.63074" lon="-0.05297">
        <ele>21</ele>
        <time>2025-04-18T10:45:23Z</time>
      </trkpt>
      <trkpt lat="44.6307" lon="-0.05331">
        <ele>21</ele>
        <time>2025-04-18T10:45:18Z</time>
      </trkpt>
      <trkpt lat="44.6307" lon="-0.05409">
        <ele>20</ele>
        <time>2025-04-18T10:45:08Z</time>
      </trkpt>
      <trkpt lat="44.63066" lon="-0.05468">
        <ele>21</ele>
        <time>2025-04-18T10:45:01Z</time>
      </trkpt>
      <trkpt lat="44.6306" lon="-0.05506">
        <ele>21</ele>
        <time>2025-04-18T10:44:56Z</time>
      </trkpt>
      <trkpt lat="44.63048" lon="-0.05554">
        <ele>23</ele>
        <time>2025-04-18T10:44:49Z</time>
      </trkpt>
      <trkpt lat="44.62994" lon="-0.05691">
        <ele>22</ele>
        <time>2025-04-18T10:44:30Z</time>
      </trkpt>
      <trkpt lat="44.62954" lon="-0.05845">
        <ele>21</ele>
        <time>2025-04-18T10:44:09Z</time>
      </trkpt>
      <trkpt lat="44.62931" lon="-0.05895">
        <ele>21</ele>
        <time>2025-04-18T10:44:01Z</time>
      </trkpt>
      <trkpt lat="44.62918" lon="-0.05935">
        <ele>23</ele>
        <time>2025-04-18T10:43:56Z</time>
      </trkpt>
      <trkpt lat="44.62915" lon="-0.05941">
        <ele>23</ele>
        <time>2025-04-18T10:43:55Z</time>
      </trkpt>
      <trkpt lat="44.62905" lon="-0.05947">
        <ele>23</ele>
        <time>2025-04-18T10:43:53Z</time>
      </trkpt>
      <trkpt lat="44.62882" lon="-0.05951">
        <ele>21</ele>
        <time>2025-04-18T10:43:49Z</time>
      </trkpt>
      <trkpt lat="44.62874" lon="-0.05958">
        <ele>21</ele>
        <time>2025-04-18T10:43:47Z</time>
      </trkpt>
      <trkpt lat="44.62875" lon="-0.05991">
        <ele>23</ele>
        <time>2025-04-18T10:43:43Z</time>
      </trkpt>
      <trkpt lat="44.6287" lon="-0.06011">
        <ele>23</ele>
        <time>2025-04-18T10:43:40Z</time>
      </trkpt>
      <trkpt lat="44.62802" lon="-0.06118">
        <ele>17</ele>
        <time>2025-04-18T10:43:22Z</time>
      </trkpt>
      <trkpt lat="44.6279" lon="-0.06143">
        <ele>16</ele>
        <time>2025-04-18T10:43:18Z</time>
      </trkpt>
      <trkpt lat="44.62782" lon="-0.06171">
        <ele>16</ele>
        <time>2025-04-18T10:43:14Z</time>
      </trkpt>
      <trkpt lat="44.62765" lon="-0.06266">
        <ele>16</ele>
        <time>2025-04-18T10:43:02Z</time>
      </trkpt>
      <trkpt lat="44.62731" lon="-0.06479">
        <ele>17</ele>
        <time>2025-04-18T10:42:34Z</time>
      </trkpt>
      <trkpt lat="44.62715" lon="-0.06535">
        <ele>17</ele>
        <time>2025-04-18T10:42:27Z</time>
      </trkpt>
      <trkpt lat="44.62699" lon="-0.06611">
        <ele>19</ele>
        <time>2025-04-18T10:42:17Z</time>
      </trkpt>
      <trkpt lat="44.62684" lon="-0.06656">
        <ele>19</ele>
        <time>2025-04-18T10:42:10Z</time>
      </trkpt>
      <trkpt lat="44.62651" lon="-0.06738">
        <ele>18</ele>
        <time>2025-04-18T10:41:58Z</time>
      </trkpt>
      <trkpt lat="44.62621" lon="-0.06796">
        <ele>17</ele>
        <time>2025-04-18T10:41:49Z</time>
      </trkpt>
      <trkpt lat="44.62586" lon="-0.0685">
        <ele>16</ele>
        <time>2025-04-18T10:41:40Z</time>
      </trkpt>
      <trkpt lat="44.62572" lon="-0.06877">
        <ele>16</ele>
        <time>2025-04-18T10:41:36Z</time>
      </trkpt>
      <trkpt lat="44.62551" lon="-0.06932">
        <ele>17</ele>
        <time>2025-04-18T10:41:28Z</time>
      </trkpt>
      <trkpt lat="44.62529" lon="-0.06976">
        <ele>17</ele>
        <time>2025-04-18T10:41:21Z</time>
      </trkpt>
      <trkpt lat="44.62521" lon="-0.06999">
        <ele>18</ele>
        <time>2025-04-18T10:41:18Z</time>
      </trkpt>
      <trkpt lat="44.6251" lon="-0.07046">
        <ele>22</ele>
        <time>2025-04-18T10:41:12Z</time>
      </trkpt>
      <trkpt lat="44.62494" lon="-0.07072">
        <ele>24</ele>
        <time>2025-04-18T10:41:07Z</time>
      </trkpt>
      <trkpt lat="44.62444" lon="-0.07108">
        <ele>24</ele>
        <time>2025-04-18T10:40:57Z</time>
      </trkpt>
      <trkpt lat="44.62391" lon="-0.07167">
        <ele>25</ele>
        <time>2025-04-18T10:40:45Z</time>
      </trkpt>
      <trkpt lat="44.62346" lon="-0.07222">
        <ele>26</ele>
        <time>2025-04-18T10:40:35Z</time>
      </trkpt>
      <trkpt lat="44.62296" lon="-0.07274">
        <ele>26</ele>
        <time>2025-04-18T10:40:24Z</time>
      </trkpt>
      <trkpt lat="44.62243" lon="-0.07349">
        <ele>26</ele>
        <time>2025-04-18T10:40:10Z</time>
      </trkpt>
      <trkpt lat="44.62184" lon="-0.07418">
        <ele>24</ele>
        <time>2025-04-18T10:39:57Z</time>
      </trkpt>
      <trkpt lat="44.62104" lon="-0.07551">
        <ele>20</ele>
        <time>2025-04-18T10:39:35Z</time>
      </trkpt>
      <trkpt lat="44.62088" lon="-0.07594">
        <ele>21</ele>
        <time>2025-04-18T10:39:28Z</time>
      </trkpt>
      <trkpt lat="44.6208" lon="-0.07609">
        <ele>22</ele>
        <time>2025-04-18T10:39:26Z</time>
      </trkpt>
      <trkpt lat="44.62063" lon="-0.07615">
        <ele>21</ele>
        <time>2025-04-18T10:39:23Z</time>
      </trkpt>
      <trkpt lat="44.62049" lon="-0.07615">
        <ele>21</ele>
        <time>2025-04-18T10:39:20Z</time>
      </trkpt>
      <trkpt lat="44.62036" lon="-0.0761">
        <ele>20</ele>
        <time>2025-04-18T10:39:18Z</time>
      </trkpt>
      <trkpt lat="44.62025" lon="-0.07599">
        <ele>19</ele>
        <time>2025-04-18T10:39:16Z</time>
      </trkpt>
      <trkpt lat="44.62007" lon="-0.07571">
        <ele>18</ele>
        <time>2025-04-18T10:39:11Z</time>
      </trkpt>
      <trkpt lat="44.61997" lon="-0.07565">
        <ele>17</ele>
        <time>2025-04-18T10:39:09Z</time>
      </trkpt>
      <trkpt lat="44.6198" lon="-0.07583">
        <ele>17</ele>
        <time>2025-04-18T10:39:05Z</time>
      </trkpt>
      <trkpt lat="44.61944" lon="-0.0763">
        <ele>16</ele>
        <time>2025-04-18T10:38:56Z</time>
      </trkpt>
      <trkpt lat="44.61913" lon="-0.07682">
        <ele>16</ele>
        <time>2025-04-18T10:38:48Z</time>
      </trkpt>
      <trkpt lat="44.61856" lon="-0.07794">
        <ele>17</ele>
        <time>2025-04-18T10:38:30Z</time>
      </trkpt>
      <trkpt lat="44.61795" lon="-0.07921">
        <ele>16</ele>
        <time>2025-04-18T10:38:11Z</time>
      </trkpt>
      <trkpt lat="44.61776" lon="-0.07952">
        <ele>15</ele>
        <time>2025-04-18T10:38:06Z</time>
      </trkpt>
      <trkpt lat="44.61713" lon="-0.08033">
        <ele>14</ele>
        <time>2025-04-18T10:37:51Z</time>
      </trkpt>
      <trkpt lat="44.61633" lon="-0.08171">
        <ele>16</ele>
        <time>2025-04-18T10:37:28Z</time>
      </trkpt>
      <trkpt lat="44.61609" lon="-0.08199">
        <ele>17</ele>
        <time>2025-04-18T10:37:22Z</time>
      </trkpt>
      <trkpt lat="44.61597" lon="-0.08221">
        <ele>18</ele>
        <time>2025-04-18T10:37:19Z</time>
      </trkpt>
      <trkpt lat="44.61523" lon="-0.0836">
        <ele>17</ele>
        <time>2025-04-18T10:36:57Z</time>
      </trkpt>
      <trkpt lat="44.61505" lon="-0.08398">
        <ele>16</ele>
        <time>2025-04-18T10:36:51Z</time>
      </trkpt>
      <trkpt lat="44.61479" lon="-0.08463">
        <ele>16</ele>
        <time>2025-04-18T10:36:42Z</time>
      </trkpt>
      <trkpt lat="44.61454" lon="-0.08543">
        <ele>17</ele>
        <time>2025-04-18T10:36:31Z</time>
      </trkpt>
      <trkpt lat="44.61427" lon="-0.086">
        <ele>17</ele>
        <time>2025-04-18T10:36:22Z</time>
      </trkpt>
      <trkpt lat="44.61408" lon="-0.08624">
        <ele>16</ele>
        <time>2025-04-18T10:36:17Z</time>
      </trkpt>
      <trkpt lat="44.61333" lon="-0.08691">
        <ele>13</ele>
        <time>2025-04-18T10:36:02Z</time>
      </trkpt>
      <trkpt lat="44.61308" lon="-0.08708">
        <ele>13</ele>
        <time>2025-04-18T10:35:57Z</time>
      </trkpt>
      <trkpt lat="44.61268" lon="-0.08716">
        <ele>11</ele>
        <time>2025-04-18T10:35:50Z</time>
      </trkpt>
      <trkpt lat="44.61261" lon="-0.0872">
        <ele>11</ele>
        <time>2025-04-18T10:35:48Z</time>
      </trkpt>
      <trkpt lat="44.61248" lon="-0.08735">
        <ele>11</ele>
        <time>2025-04-18T10:35:45Z</time>
      </trkpt>
      <trkpt lat="44.6123" lon="-0.08775">
        <ele>12</ele>
        <time>2025-04-18T10:35:39Z</time>
      </trkpt>
      <trkpt lat="44.61225" lon="-0.08797">
        <ele>13</ele>
        <time>2025-04-18T10:35:36Z</time>
      </trkpt>
      <trkpt lat="44.61225" lon="-0.08817">
        <ele>13</ele>
        <time>2025-04-18T10:35:34Z</time>
      </trkpt>
      <trkpt lat="44.61227" lon="-0.08827">
        <ele>14</ele>
        <time>2025-04-18T10:35:32Z</time>
      </trkpt>
      <trkpt lat="44.61259" lon="-0.08907">
        <ele>16</ele>
        <time>2025-04-18T10:35:21Z</time>
      </trkpt>
      <trkpt lat="44.61274" lon="-0.08978">
        <ele>17</ele>
        <time>2025-04-18T10:35:11Z</time>
      </trkpt>
      <trkpt lat="44.61288" lon="-0.09026">
        <ele>17</ele>
        <time>2025-04-18T10:35:05Z</time>
      </trkpt>
      <trkpt lat="44.6129" lon="-0.09043">
        <ele>17</ele>
        <time>2025-04-18T10:35:03Z</time>
      </trkpt>
      <trkpt lat="44.61283" lon="-0.09053">
        <ele>18</ele>
        <time>2025-04-18T10:35:01Z</time>
      </trkpt>
      <trkpt lat="44.6125" lon="-0.09078">
        <ele>19</ele>
        <time>2025-04-18T10:34:54Z</time>
      </trkpt>
      <trkpt lat="44.61224" lon="-0.09103">
        <ele>19</ele>
        <time>2025-04-18T10:34:49Z</time>
      </trkpt>
      <trkpt lat="44.61219" lon="-0.09115">
        <ele>19</ele>
        <time>2025-04-18T10:34:47Z</time>
      </trkpt>
      <trkpt lat="44.61204" lon="-0.09136">
        <ele>19</ele>
        <time>2025-04-18T10:34:43Z</time>
      </trkpt>
      <trkpt lat="44.61186" lon="-0.09146">
        <ele>19</ele>
        <time>2025-04-18T10:34:40Z</time>
      </trkpt>
      <trkpt lat="44.61165" lon="-0.09151">
        <ele>19</ele>
        <time>2025-04-18T10:34:36Z</time>
      </trkpt>
      <trkpt lat="44.61085" lon="-0.09164">
        <ele>18</ele>
        <time>2025-04-18T10:34:21Z</time>
      </trkpt>
      <trkpt lat="44.61046" lon="-0.09167">
        <ele>18</ele>
        <time>2025-04-18T10:34:15Z</time>
      </trkpt>
      <trkpt lat="44.61032" lon="-0.09166">
        <ele>19</ele>
        <time>2025-04-18T10:34:12Z</time>
      </trkpt>
      <trkpt lat="44.60979" lon="-0.09156">
        <ele>19</ele>
        <time>2025-04-18T10:34:03Z</time>
      </trkpt>
      <trkpt lat="44.60941" lon="-0.09162">
        <ele>19</ele>
        <time>2025-04-18T10:33:56Z</time>
      </trkpt>
      <trkpt lat="44.60915" lon="-0.09173">
        <ele>20</ele>
        <time>2025-04-18T10:33:51Z</time>
      </trkpt>
      <trkpt lat="44.6082" lon="-0.09224">
        <ele>21</ele>
        <time>2025-04-18T10:33:33Z</time>
      </trkpt>
      <trkpt lat="44.60758" lon="-0.09272">
        <ele>21</ele>
        <time>2025-04-18T10:33:20Z</time>
      </trkpt>
      <trkpt lat="44.6072" lon="-0.09298">
        <ele>20</ele>
        <time>2025-04-18T10:33:13Z</time>
      </trkpt>
      <trkpt lat="44.60671" lon="-0.09331">
        <ele>18</ele>
        <time>2025-04-18T10:33:03Z</time>
      </trkpt>
      <trkpt lat="44.60615" lon="-0.09364">
        <ele>18</ele>
        <time>2025-04-18T10:32:52Z</time>
      </trkpt>
      <trkpt lat="44.60606" lon="-0.09372">
        <ele>18</ele>
        <time>2025-04-18T10:32:50Z</time>
      </trkpt>
      <trkpt lat="44.60593" lon="-0.09399">
        <ele>18</ele>
        <time>2025-04-18T10:32:46Z</time>
      </trkpt>
      <trkpt lat="44.60583" lon="-0.09429">
        <ele>18</ele>
        <time>2025-04-18T10:32:42Z</time>
      </trkpt>
      <trkpt lat="44.60567" lon="-0.09454">
        <ele>18</ele>
        <time>2025-04-18T10:32:38Z</time>
      </trkpt>
      <trkpt lat="44.60529" lon="-0.0949">
        <ele>18</ele>
        <time>2025-04-18T10:32:30Z</time>
      </trkpt>
      <trkpt lat="44.60511" lon="-0.09498">
        <ele>18</ele>
        <time>2025-04-18T10:32:26Z</time>
      </trkpt>
      <trkpt lat="44.605" lon="-0.09498">
        <ele>18</ele>
        <time>2025-04-18T10:32:24Z</time>
      </trkpt>
      <trkpt lat="44.60467" lon="-0.09481">
        <ele>18</ele>
        <time>2025-04-18T10:32:18Z</time>
      </trkpt>
      <trkpt lat="44.60443" lon="-0.09472">
        <ele>18</ele>
        <time>2025-04-18T10:32:14Z</time>
      </trkpt>
      <trkpt lat="44.60403" lon="-0.09465">
        <ele>18</ele>
        <time>2025-04-18T10:32:06Z</time>
      </trkpt>
      <trkpt lat="44.60348" lon="-0.09446">
        <ele>17</ele>
        <time>2025-04-18T10:31:56Z</time>
      </trkpt>
      <trkpt lat="44.60246" lon="-0.09428">
        <ele>21</ele>
        <time>2025-04-18T10:31:38Z</time>
      </trkpt>
      <trkpt lat="44.602" lon="-0.09428">
        <ele>23</ele>
        <time>2025-04-18T10:31:30Z</time>
      </trkpt>
      <trkpt lat="44.59863" lon="-0.09477">
        <ele>15</ele>
        <time>2025-04-18T10:30:30Z</time>
      </trkpt>
      <trkpt lat="44.59835" lon="-0.09489">
        <ele>16</ele>
        <time>2025-04-18T10:30:24Z</time>
      </trkpt>
      <trkpt lat="44.59822" lon="-0.09498">
        <ele>16</ele>
        <time>2025-04-18T10:30:22Z</time>
      </trkpt>
      <trkpt lat="44.59743" lon="-0.09574">
        <ele>20</ele>
        <time>2025-04-18T10:30:05Z</time>
      </trkpt>
      <trkpt lat="44.59733" lon="-0.09581">
        <ele>20</ele>
        <time>2025-04-18T10:30:03Z</time>
      </trkpt>
      <trkpt lat="44.59722" lon="-0.09584">
        <ele>21</ele>
        <time>2025-04-18T10:30:01Z</time>
      </trkpt>
      <trkpt lat="44.59698" lon="-0.09579">
        <ele>21</ele>
        <time>2025-04-18T10:29:56Z</time>
      </trkpt>
      <trkpt lat="44.5963" lon="-0.09546">
        <ele>20</ele>
        <time>2025-04-18T10:29:44Z</time>
      </trkpt>
      <trkpt lat="44.59589" lon="-0.09534">
        <ele>20</ele>
        <time>2025-04-18T10:29:36Z</time>
      </trkpt>
      <trkpt lat="44.59576" lon="-0.09533">
        <ele>20</ele>
        <time>2025-04-18T10:29:34Z</time>
      </trkpt>
      <trkpt lat="44.59518" lon="-0.09543">
        <ele>24</ele>
        <time>2025-04-18T10:29:23Z</time>
      </trkpt>
      <trkpt lat="44.59486" lon="-0.09545">
        <ele>26</ele>
        <time>2025-04-18T10:29:18Z</time>
      </trkpt>
      <trkpt lat="44.59308" lon="-0.09525">
        <ele>28</ele>
        <time>2025-04-18T10:28:46Z</time>
      </trkpt>
      <trkpt lat="44.59287" lon="-0.09529">
        <ele>27</ele>
        <time>2025-04-18T10:28:42Z</time>
      </trkpt>
      <trkpt lat="44.59277" lon="-0.09535">
        <ele>28</ele>
        <time>2025-04-18T10:28:40Z</time>
      </trkpt>
      <trkpt lat="44.59257" lon="-0.09552">
        <ele>29</ele>
        <time>2025-04-18T10:28:36Z</time>
      </trkpt>
      <trkpt lat="44.59233" lon="-0.09579">
        <ele>33</ele>
        <time>2025-04-18T10:28:31Z</time>
      </trkpt>
      <trkpt lat="44.59224" lon="-0.09584">
        <ele>34</ele>
        <time>2025-04-18T10:28:29Z</time>
      </trkpt>
      <trkpt lat="44.59214" lon="-0.09586">
        <ele>35</ele>
        <time>2025-04-18T10:28:27Z</time>
      </trkpt>
      <trkpt lat="44.59203" lon="-0.09584">
        <ele>35</ele>
        <time>2025-04-18T10:28:25Z</time>
      </trkpt>
      <trkpt lat="44.59072" lon="-0.09539">
        <ele>35</ele>
        <time>2025-04-18T10:28:01Z</time>
      </trkpt>
      <trkpt lat="44.59042" lon="-0.09532">
        <ele>34</ele>
        <time>2025-04-18T10:27:56Z</time>
      </trkpt>
      <trkpt lat="44.58691" lon="-0.09481">
        <ele>23</ele>
        <time>2025-04-18T10:26:53Z</time>
      </trkpt>
      <trkpt lat="44.58637" lon="-0.09479">
        <ele>20</ele>
        <time>2025-04-18T10:26:43Z</time>
      </trkpt>
      <trkpt lat="44.58628" lon="-0.09482">
        <ele>20</ele>
        <time>2025-04-18T10:26:42Z</time>
      </trkpt>
      <trkpt lat="44.58611" lon="-0.09499">
        <ele>19</ele>
        <time>2025-04-18T10:26:38Z</time>
      </trkpt>
      <trkpt lat="44.58545" lon="-0.09626">
        <ele>24</ele>
        <time>2025-04-18T10:26:18Z</time>
      </trkpt>
      <trkpt lat="44.58538" lon="-0.09632">
        <ele>23</ele>
        <time>2025-04-18T10:26:17Z</time>
      </trkpt>
      <trkpt lat="44.58531" lon="-0.09634">
        <ele>22</ele>
        <time>2025-04-18T10:26:15Z</time>
      </trkpt>
      <trkpt lat="44.58515" lon="-0.09634">
        <ele>19</ele>
        <time>2025-04-18T10:26:13Z</time>
      </trkpt>
      <trkpt lat="44.58503" lon="-0.09624">
        <ele>16</ele>
        <time>2025-04-18T10:26:10Z</time>
      </trkpt>
      <trkpt lat="44.58423" lon="-0.09426">
        <ele>15</ele>
        <time>2025-04-18T10:25:41Z</time>
      </trkpt>
      <trkpt lat="44.58406" lon="-0.09347">
        <ele>16</ele>
        <time>2025-04-18T10:25:31Z</time>
      </trkpt>
      <trkpt lat="44.58402" lon="-0.09282">
        <ele>18</ele>
        <time>2025-04-18T10:25:22Z</time>
      </trkpt>
      <trkpt lat="44.58403" lon="-0.09214">
        <ele>21</ele>
        <time>2025-04-18T10:25:14Z</time>
      </trkpt>
      <trkpt lat="44.58409" lon="-0.09109">
        <ele>25</ele>
        <time>2025-04-18T10:25:01Z</time>
      </trkpt>
      <trkpt lat="44.58408" lon="-0.08973">
        <ele>25</ele>
        <time>2025-04-18T10:24:43Z</time>
      </trkpt>
      <trkpt lat="44.58417" lon="-0.08943">
        <ele>26</ele>
        <time>2025-04-18T10:24:39Z</time>
      </trkpt>
      <trkpt lat="44.58436" lon="-0.08894">
        <ele>26</ele>
        <time>2025-04-18T10:24:32Z</time>
      </trkpt>
      <trkpt lat="44.58458" lon="-0.08814">
        <ele>25</ele>
        <time>2025-04-18T10:24:21Z</time>
      </trkpt>
      <trkpt lat="44.58464" lon="-0.08772">
        <ele>25</ele>
        <time>2025-04-18T10:24:16Z</time>
      </trkpt>
      <trkpt lat="44.58483" lon="-0.08683">
        <ele>25</ele>
        <time>2025-04-18T10:24:04Z</time>
      </trkpt>
      <trkpt lat="44.58524" lon="-0.08435">
        <ele>26</ele>
        <time>2025-04-18T10:23:32Z</time>
      </trkpt>
      <trkpt lat="44.5853" lon="-0.08346">
        <ele>27</ele>
        <time>2025-04-18T10:23:20Z</time>
      </trkpt>
      <trkpt lat="44.58528" lon="-0.08243">
        <ele>27</ele>
        <time>2025-04-18T10:23:07Z</time>
      </trkpt>
      <trkpt lat="44.58494" lon="-0.07873">
        <ele>29</ele>
        <time>2025-04-18T10:22:20Z</time>
      </trkpt>
      <trkpt lat="44.58474" lon="-0.07738">
        <ele>31</ele>
        <time>2025-04-18T10:22:03Z</time>
      </trkpt>
      <trkpt lat="44.58477" lon="-0.07709">
        <ele>32</ele>
        <time>2025-04-18T10:21:59Z</time>
      </trkpt>
      <trkpt lat="44.58475" lon="-0.07694">
        <ele>33</ele>
        <time>2025-04-18T10:21:57Z</time>
      </trkpt>
      <trkpt lat="44.58465" lon="-0.07687">
        <ele>33</ele>
        <time>2025-04-18T10:21:55Z</time>
      </trkpt>
      <trkpt lat="44.58439" lon="-0.07701">
        <ele>33</ele>
        <time>2025-04-18T10:21:50Z</time>
      </trkpt>
      <trkpt lat="44.58382" lon="-0.07708">
        <ele>32</ele>
        <time>2025-04-18T10:21:40Z</time>
      </trkpt>
      <trkpt lat="44.58289" lon="-0.07715">
        <ele>30</ele>
        <time>2025-04-18T10:21:23Z</time>
      </trkpt>
      <trkpt lat="44.58236" lon="-0.07723">
        <ele>27</ele>
        <time>2025-04-18T10:21:14Z</time>
      </trkpt>
      <trkpt lat="44.58179" lon="-0.07738">
        <ele>25</ele>
        <time>2025-04-18T10:21:03Z</time>
      </trkpt>
      <trkpt lat="44.58153" lon="-0.07742">
        <ele>24</ele>
        <time>2025-04-18T10:20:59Z</time>
      </trkpt>
      <trkpt lat="44.581" lon="-0.0774">
        <ele>22</ele>
        <time>2025-04-18T10:20:49Z</time>
      </trkpt>
      <trkpt lat="44.58036" lon="-0.0773">
        <ele>21</ele>
        <time>2025-04-18T10:20:38Z</time>
      </trkpt>
      <trkpt lat="44.57999" lon="-0.07721">
        <ele>21</ele>
        <time>2025-04-18T10:20:31Z</time>
      </trkpt>
      <trkpt lat="44.57976" lon="-0.07712">
        <ele>21</ele>
        <time>2025-04-18T10:20:27Z</time>
      </trkpt>
      <trkpt lat="44.57922" lon="-0.07688">
        <ele>21</ele>
        <time>2025-04-18T10:20:17Z</time>
      </trkpt>
      <trkpt lat="44.57859" lon="-0.07654">
        <ele>19</ele>
        <time>2025-04-18T10:20:05Z</time>
      </trkpt>
      <trkpt lat="44.57827" lon="-0.07647">
        <ele>16</ele>
        <time>2025-04-18T10:19:59Z</time>
      </trkpt>
      <trkpt lat="44.57815" lon="-0.0764">
        <ele>16</ele>
        <time>2025-04-18T10:19:57Z</time>
      </trkpt>
      <trkpt lat="44.57797" lon="-0.07624">
        <ele>16</ele>
        <time>2025-04-18T10:19:53Z</time>
      </trkpt>
      <trkpt lat="44.57786" lon="-0.0761">
        <ele>15</ele>
        <time>2025-04-18T10:19:50Z</time>
      </trkpt>
      <trkpt lat="44.57777" lon="-0.07592">
        <ele>15</ele>
        <time>2025-04-18T10:19:48Z</time>
      </trkpt>
      <trkpt lat="44.57771" lon="-0.07567">
        <ele>15</ele>
        <time>2025-04-18T10:19:44Z</time>
      </trkpt>
      <trkpt lat="44.5777" lon="-0.07534">
        <ele>15</ele>
        <time>2025-04-18T10:19:40Z</time>
      </trkpt>
      <trkpt lat="44.57775" lon="-0.07496">
        <ele>16</ele>
        <time>2025-04-18T10:19:35Z</time>
      </trkpt>
      <trkpt lat="44.57925" lon="-0.06688">
        <ele>18</ele>
        <time>2025-04-18T10:17:49Z</time>
      </trkpt>
      <trkpt lat="44.57941" lon="-0.06552">
        <ele>18</ele>
        <time>2025-04-18T10:17:32Z</time>
      </trkpt>
      <trkpt lat="44.57945" lon="-0.06499">
        <ele>18</ele>
        <time>2025-04-18T10:17:25Z</time>
      </trkpt>
      <trkpt lat="44.57955" lon="-0.0619">
        <ele>18</ele>
        <time>2025-04-18T10:16:46Z</time>
      </trkpt>
      <trkpt lat="44.57955" lon="-0.0611">
        <ele>21</ele>
        <time>2025-04-18T10:16:36Z</time>
      </trkpt>
      <trkpt lat="44.57949" lon="-0.06036">
        <ele>23</ele>
        <time>2025-04-18T10:16:26Z</time>
      </trkpt>
      <trkpt lat="44.5794" lon="-0.05963">
        <ele>23</ele>
        <time>2025-04-18T10:16:17Z</time>
      </trkpt>
      <trkpt lat="44.57936" lon="-0.05888">
        <ele>21</ele>
        <time>2025-04-18T10:16:07Z</time>
      </trkpt>
      <trkpt lat="44.57946" lon="-0.05676">
        <ele>21</ele>
        <time>2025-04-18T10:15:41Z</time>
      </trkpt>
      <trkpt lat="44.57953" lon="-0.05625">
        <ele>21</ele>
        <time>2025-04-18T10:15:34Z</time>
      </trkpt>
      <trkpt lat="44.57965" lon="-0.05576">
        <ele>22</ele>
        <time>2025-04-18T10:15:27Z</time>
      </trkpt>
      <trkpt lat="44.58029" lon="-0.05345">
        <ele>26</ele>
        <time>2025-04-18T10:14:56Z</time>
      </trkpt>
      <trkpt lat="44.58056" lon="-0.05184">
        <ele>24</ele>
        <time>2025-04-18T10:14:35Z</time>
      </trkpt>
      <trkpt lat="44.58066" lon="-0.05101">
        <ele>23</ele>
        <time>2025-04-18T10:14:24Z</time>
      </trkpt>
      <trkpt lat="44.58082" lon="-0.0491">
        <ele>19</ele>
        <time>2025-04-18T10:14:00Z</time>
      </trkpt>
      <trkpt lat="44.5809" lon="-0.04682">
        <ele>16</ele>
        <time>2025-04-18T10:13:31Z</time>
      </trkpt>
      <trkpt lat="44.58088" lon="-0.04565">
        <ele>17</ele>
        <time>2025-04-18T10:13:16Z</time>
      </trkpt>
      <trkpt lat="44.58078" lon="-0.04392">
        <ele>18</ele>
        <time>2025-04-18T10:12:54Z</time>
      </trkpt>
      <trkpt lat="44.58038" lon="-0.04031">
        <ele>25</ele>
        <time>2025-04-18T10:12:08Z</time>
      </trkpt>
      <trkpt lat="44.58025" lon="-0.03888">
        <ele>23</ele>
        <time>2025-04-18T10:11:50Z</time>
      </trkpt>
      <trkpt lat="44.57986" lon="-0.03692">
        <ele>24</ele>
        <time>2025-04-18T10:11:24Z</time>
      </trkpt>
      <trkpt lat="44.57976" lon="-0.03634">
        <ele>25</ele>
        <time>2025-04-18T10:11:16Z</time>
      </trkpt>
      <trkpt lat="44.57971" lon="-0.03581">
        <ele>26</ele>
        <time>2025-04-18T10:11:09Z</time>
      </trkpt>
      <trkpt lat="44.57967" lon="-0.03488">
        <ele>23</ele>
        <time>2025-04-18T10:10:58Z</time>
      </trkpt>
      <trkpt lat="44.57961" lon="-0.03413">
        <ele>20</ele>
        <time>2025-04-18T10:10:48Z</time>
      </trkpt>
      <trkpt lat="44.57967" lon="-0.03311">
        <ele>21</ele>
        <time>2025-04-18T10:10:35Z</time>
      </trkpt>
      <trkpt lat="44.57965" lon="-0.03237">
        <ele>22</ele>
        <time>2025-04-18T10:10:26Z</time>
      </trkpt>
      <trkpt lat="44.57966" lon="-0.03143">
        <ele>23</ele>
        <time>2025-04-18T10:10:14Z</time>
      </trkpt>
      <trkpt lat="44.57964" lon="-0.03112">
        <ele>23</ele>
        <time>2025-04-18T10:10:10Z</time>
      </trkpt>
      <trkpt lat="44.57965" lon="-0.02941">
        <ele>24</ele>
        <time>2025-04-18T10:09:48Z</time>
      </trkpt>
      <trkpt lat="44.57961" lon="-0.02833">
        <ele>24</ele>
        <time>2025-04-18T10:09:35Z</time>
      </trkpt>
      <trkpt lat="44.57951" lon="-0.02717">
        <ele>25</ele>
        <time>2025-04-18T10:09:20Z</time>
      </trkpt>
      <trkpt lat="44.57925" lon="-0.0255">
        <ele>24</ele>
        <time>2025-04-18T10:08:58Z</time>
      </trkpt>
      <trkpt lat="44.57879" lon="-0.02332">
        <ele>28</ele>
        <time>2025-04-18T10:08:29Z</time>
      </trkpt>
      <trkpt lat="44.57845" lon="-0.02192">
        <ele>26</ele>
        <time>2025-04-18T10:08:10Z</time>
      </trkpt>
      <trkpt lat="44.57827" lon="-0.02128">
        <ele>28</ele>
        <time>2025-04-18T10:08:02Z</time>
      </trkpt>
      <trkpt lat="44.57757" lon="-0.0192">
        <ele>25</ele>
        <time>2025-04-18T10:07:33Z</time>
      </trkpt>
      <trkpt lat="44.57723" lon="-0.01844">
        <ele>23</ele>
        <time>2025-04-18T10:07:21Z</time>
      </trkpt>
      <trkpt lat="44.57702" lon="-0.0181">
        <ele>22</ele>
        <time>2025-04-18T10:07:16Z</time>
      </trkpt>
      <trkpt lat="44.57658" lon="-0.01751">
        <ele>16</ele>
        <time>2025-04-18T10:07:05Z</time>
      </trkpt>
      <trkpt lat="44.57621" lon="-0.01715">
        <ele>16</ele>
        <time>2025-04-18T10:06:57Z</time>
      </trkpt>
      <trkpt lat="44.57456" lon="-0.01594">
        <ele>14</ele>
        <time>2025-04-18T10:06:24Z</time>
      </trkpt>
      <trkpt lat="44.57437" lon="-0.01577">
        <ele>14</ele>
        <time>2025-04-18T10:06:20Z</time>
      </trkpt>
      <trkpt lat="44.57428" lon="-0.01562">
        <ele>14</ele>
        <time>2025-04-18T10:06:17Z</time>
      </trkpt>
      <trkpt lat="44.57422" lon="-0.01546">
        <ele>14</ele>
        <time>2025-04-18T10:06:15Z</time>
      </trkpt>
      <trkpt lat="44.5742" lon="-0.0153">
        <ele>15</ele>
        <time>2025-04-18T10:06:13Z</time>
      </trkpt>
      <trkpt lat="44.57421" lon="-0.01512">
        <ele>15</ele>
        <time>2025-04-18T10:06:10Z</time>
      </trkpt>
      <trkpt lat="44.57441" lon="-0.01419">
        <ele>14</ele>
        <time>2025-04-18T10:05:58Z</time>
      </trkpt>
      <trkpt lat="44.57454" lon="-0.0137">
        <ele>15</ele>
        <time>2025-04-18T10:05:51Z</time>
      </trkpt>
      <trkpt lat="44.57453" lon="-0.01355">
        <ele>15</ele>
        <time>2025-04-18T10:05:50Z</time>
      </trkpt>
      <trkpt lat="44.57446" lon="-0.01344">
        <ele>16</ele>
        <time>2025-04-18T10:05:48Z</time>
      </trkpt>
      <trkpt lat="44.57443" lon="-0.01334">
        <ele>16</ele>
        <time>2025-04-18T10:05:46Z</time>
      </trkpt>
      <trkpt lat="44.57449" lon="-0.01291">
        <ele>17</ele>
        <time>2025-04-18T10:05:41Z</time>
      </trkpt>
      <trkpt lat="44.57446" lon="-0.01244">
        <ele>18</ele>
        <time>2025-04-18T10:05:35Z</time>
      </trkpt>
      <trkpt lat="44.57449" lon="-0.01204">
        <ele>18</ele>
        <time>2025-04-18T10:05:30Z</time>
      </trkpt>
      <trkpt lat="44.5744" lon="-0.0117">
        <ele>18</ele>
        <time>2025-04-18T10:05:25Z</time>
      </trkpt>
      <trkpt lat="44.57391" lon="-0.01055">
        <ele>16</ele>
        <time>2025-04-18T10:05:08Z</time>
      </trkpt>
      <trkpt lat="44.57373" lon="-0.01004">
        <ele>16</ele>
        <time>2025-04-18T10:05:01Z</time>
      </trkpt>
      <trkpt lat="44.57345" lon="-0.00917">
        <ele>18</ele>
        <time>2025-04-18T10:04:49Z</time>
      </trkpt>
      <trkpt lat="44.57319" lon="-0.00823">
        <ele>17</ele>
        <time>2025-04-18T10:04:36Z</time>
      </trkpt>
      <trkpt lat="44.57312" lon="-0.00809">
        <ele>17</ele>
        <time>2025-04-18T10:04:34Z</time>
      </trkpt>
      <trkpt lat="44.57302" lon="-0.00798">
        <ele>16</ele>
        <time>2025-04-18T10:04:32Z</time>
      </trkpt>
      <trkpt lat="44.57278" lon="-0.00784">
        <ele>15</ele>
        <time>2025-04-18T10:04:27Z</time>
      </trkpt>
      <trkpt lat="44.57265" lon="-0.0078">
        <ele>14</ele>
        <time>2025-04-18T10:04:25Z</time>
      </trkpt>
      <trkpt lat="44.57209" lon="-0.00769">
        <ele>12</ele>
        <time>2025-04-18T10:04:15Z</time>
      </trkpt>
      <trkpt lat="44.57167" lon="-0.00765">
        <ele>11</ele>
        <time>2025-04-18T10:04:07Z</time>
      </trkpt>
      <trkpt lat="44.57153" lon="-0.00761">
        <ele>11</ele>
        <time>2025-04-18T10:04:05Z</time>
      </trkpt>
      <trkpt lat="44.57128" lon="-0.00746">
        <ele>11</ele>
        <time>2025-04-18T10:04:00Z</time>
      </trkpt>
      <trkpt lat="44.57101" lon="-0.00736">
        <ele>11</ele>
        <time>2025-04-18T10:03:55Z</time>
      </trkpt>
      <trkpt lat="44.56982" lon="-0.00735">
        <ele>11</ele>
        <time>2025-04-18T10:03:34Z</time>
      </trkpt>
      <trkpt lat="44.5692" lon="-0.0074">
        <ele>12</ele>
        <time>2025-04-18T10:03:22Z</time>
      </trkpt>
      <trkpt lat="44.56825" lon="-0.0076">
        <ele>12</ele>
        <time>2025-04-18T10:03:05Z</time>
      </trkpt>
      <trkpt lat="44.56763" lon="-0.00777">
        <ele>10</ele>
        <time>2025-04-18T10:02:54Z</time>
      </trkpt>
      <trkpt lat="44.56689" lon="-0.00801">
        <ele>11</ele>
        <time>2025-04-18T10:02:41Z</time>
      </trkpt>
      <trkpt lat="44.56617" lon="-0.00828">
        <ele>13</ele>
        <time>2025-04-18T10:02:27Z</time>
      </trkpt>
      <trkpt lat="44.56588" lon="-0.00833">
        <ele>13</ele>
        <time>2025-04-18T10:02:22Z</time>
      </trkpt>
      <trkpt lat="44.56559" lon="-0.00832">
        <ele>13</ele>
        <time>2025-04-18T10:02:17Z</time>
      </trkpt>
      <trkpt lat="44.56531" lon="-0.00823">
        <ele>12</ele>
        <time>2025-04-18T10:02:12Z</time>
      </trkpt>
      <trkpt lat="44.56504" lon="-0.00808">
        <ele>12</ele>
        <time>2025-04-18T10:02:07Z</time>
      </trkpt>
      <trkpt lat="44.56398" lon="-0.00734">
        <ele>12</ele>
        <time>2025-04-18T10:01:46Z</time>
      </trkpt>
      <trkpt lat="44.56317" lon="-0.00683">
        <ele>13</ele>
        <time>2025-04-18T10:01:30Z</time>
      </trkpt>
      <trkpt lat="44.56217" lon="-0.0061">
        <ele>14</ele>
        <time>2025-04-18T10:01:10Z</time>
      </trkpt>
      <trkpt lat="44.56204" lon="-0.00604">
        <ele>14</ele>
        <time>2025-04-18T10:01:07Z</time>
      </trkpt>
      <trkpt lat="44.5619" lon="-0.006">
        <ele>14</ele>
        <time>2025-04-18T10:01:05Z</time>
      </trkpt>
      <trkpt lat="44.56133" lon="-0.00601">
        <ele>13</ele>
        <time>2025-04-18T10:00:55Z</time>
      </trkpt>
      <trkpt lat="44.56089" lon="-0.00595">
        <ele>13</ele>
        <time>2025-04-18T10:00:47Z</time>
      </trkpt>
      <trkpt lat="44.56018" lon="-0.0057">
        <ele>13</ele>
        <time>2025-04-18T10:00:34Z</time>
      </trkpt>
      <trkpt lat="44.55927" lon="-0.00547">
        <ele>13</ele>
        <time>2025-04-18T10:00:17Z</time>
      </trkpt>
      <trkpt lat="44.55705" lon="-0.00479">
        <ele>13</ele>
        <time>2025-04-18T09:59:37Z</time>
      </trkpt>
      <trkpt lat="44.5566" lon="-0.00457">
        <ele>14</ele>
        <time>2025-04-18T09:59:28Z</time>
      </trkpt>
      <trkpt lat="44.55626" lon="-0.00433">
        <ele>14</ele>
        <time>2025-04-18T09:59:22Z</time>
      </trkpt>
      <trkpt lat="44.55565" lon="-0.00365">
        <ele>15</ele>
        <time>2025-04-18T09:59:08Z</time>
      </trkpt>
      <trkpt lat="44.55546" lon="-0.00338">
        <ele>15</ele>
        <time>2025-04-18T09:59:03Z</time>
      </trkpt>
      <trkpt lat="44.55543" lon="-0.0033">
        <ele>15</ele>
        <time>2025-04-18T09:59:02Z</time>
      </trkpt>
      <trkpt lat="44.55541" lon="-0.00312">
        <ele>15</ele>
        <time>2025-04-18T09:59:00Z</time>
      </trkpt>
      <trkpt lat="44.55543" lon="-0.00303">
        <ele>15</ele>
        <time>2025-04-18T09:58:58Z</time>
      </trkpt>
      <trkpt lat="44.55565" lon="-0.00258">
        <ele>14</ele>
        <time>2025-04-18T09:58:51Z</time>
      </trkpt>
      <trkpt lat="44.55598" lon="-0.00168">
        <ele>14</ele>
        <time>2025-04-18T09:58:39Z</time>
      </trkpt>
      <trkpt lat="44.55599" lon="-0.00159">
        <ele>14</ele>
        <time>2025-04-18T09:58:37Z</time>
      </trkpt>
      <trkpt lat="44.55596" lon="-0.00143">
        <ele>14</ele>
        <time>2025-04-18T09:58:35Z</time>
      </trkpt>
      <trkpt lat="44.55585" lon="-0.00132">
        <ele>14</ele>
        <time>2025-04-18T09:58:33Z</time>
      </trkpt>
      <trkpt lat="44.55504" lon="-0.00077">
        <ele>16</ele>
        <time>2025-04-18T09:58:17Z</time>
      </trkpt>
      <trkpt lat="44.55394" lon="0.00013">
        <ele>16</ele>
        <time>2025-04-18T09:57:54Z</time>
      </trkpt>
      <trkpt lat="44.55372" lon="0.00038">
        <ele>16</ele>
        <time>2025-04-18T09:57:49Z</time>
      </trkpt>
      <trkpt lat="44.55335" lon="0.001">
        <ele>16</ele>
        <time>2025-04-18T09:57:39Z</time>
      </trkpt>
      <trkpt lat="44.55323" lon="0.00116">
        <ele>16</ele>
        <time>2025-04-18T09:57:36Z</time>
      </trkpt>
      <trkpt lat="44.55319" lon="0.00138">
        <ele>16</ele>
        <time>2025-04-18T09:57:33Z</time>
      </trkpt>
      <trkpt lat="44.55321" lon="0.00148">
        <ele>16</ele>
        <time>2025-04-18T09:57:32Z</time>
      </trkpt>
      <trkpt lat="44.55332" lon="0.00166">
        <ele>16</ele>
        <time>2025-04-18T09:57:29Z</time>
      </trkpt>
      <trkpt lat="44.55364" lon="0.00196">
        <ele>15</ele>
        <time>2025-04-18T09:57:22Z</time>
      </trkpt>
      <trkpt lat="44.5542" lon="0.00231">
        <ele>13</ele>
        <time>2025-04-18T09:57:11Z</time>
      </trkpt>
      <trkpt lat="44.55465" lon="0.00284">
        <ele>13</ele>
        <time>2025-04-18T09:57:01Z</time>
      </trkpt>
      <trkpt lat="44.55472" lon="0.00289">
        <ele>13</ele>
        <time>2025-04-18T09:56:59Z</time>
      </trkpt>
      <trkpt lat="44.55507" lon="0.00291">
        <ele>13</ele>
        <time>2025-04-18T09:56:53Z</time>
      </trkpt>
      <trkpt lat="44.55527" lon="0.00299">
        <ele>13</ele>
        <time>2025-04-18T09:56:49Z</time>
      </trkpt>
      <trkpt lat="44.55558" lon="0.00319">
        <ele>13</ele>
        <time>2025-04-18T09:56:43Z</time>
      </trkpt>
      <trkpt lat="44.55609" lon="0.00366">
        <ele>13</ele>
        <time>2025-04-18T09:56:32Z</time>
      </trkpt>
      <trkpt lat="44.55647" lon="0.00385">
        <ele>13</ele>
        <time>2025-04-18T09:56:25Z</time>
      </trkpt>
      <trkpt lat="44.55656" lon="0.00395">
        <ele>12</ele>
        <time>2025-04-18T09:56:23Z</time>
      </trkpt>
      <trkpt lat="44.55739" lon="0.00544">
        <ele>13</ele>
        <time>2025-04-18T09:55:59Z</time>
      </trkpt>
      <trkpt lat="44.55801" lon="0.00639">
        <ele>13</ele>
        <time>2025-04-18T09:55:43Z</time>
      </trkpt>
      <trkpt lat="44.55804" lon="0.00655">
        <ele>13</ele>
        <time>2025-04-18T09:55:41Z</time>
      </trkpt>
      <trkpt lat="44.55798" lon="0.00667">
        <ele>13</ele>
        <time>2025-04-18T09:55:39Z</time>
      </trkpt>
      <trkpt lat="44.55774" lon="0.00691">
        <ele>13</ele>
        <time>2025-04-18T09:55:34Z</time>
      </trkpt>
      <trkpt lat="44.55715" lon="0.00762">
        <ele>13</ele>
        <time>2025-04-18T09:55:20Z</time>
      </trkpt>
      <trkpt lat="44.55667" lon="0.00837">
        <ele>12</ele>
        <time>2025-04-18T09:55:07Z</time>
      </trkpt>
      <trkpt lat="44.5561" lon="0.00934">
        <ele>13</ele>
        <time>2025-04-18T09:54:51Z</time>
      </trkpt>
      <trkpt lat="44.55595" lon="0.00968">
        <ele>13</ele>
        <time>2025-04-18T09:54:46Z</time>
      </trkpt>
      <trkpt lat="44.55578" lon="0.01023">
        <ele>13</ele>
        <time>2025-04-18T09:54:38Z</time>
      </trkpt>
      <trkpt lat="44.55556" lon="0.01076">
        <ele>13</ele>
        <time>2025-04-18T09:54:31Z</time>
      </trkpt>
      <trkpt lat="44.55378" lon="0.01443">
        <ele>14</ele>
        <time>2025-04-18T09:53:34Z</time>
      </trkpt>
      <trkpt lat="44.55325" lon="0.01545">
        <ele>13</ele>
        <time>2025-04-18T09:53:18Z</time>
      </trkpt>
      <trkpt lat="44.55273" lon="0.01672">
        <ele>13</ele>
        <time>2025-04-18T09:53:00Z</time>
      </trkpt>
      <trkpt lat="44.55253" lon="0.01701">
        <ele>13</ele>
        <time>2025-04-18T09:52:55Z</time>
      </trkpt>
      <trkpt lat="44.5523" lon="0.01724">
        <ele>14</ele>
        <time>2025-04-18T09:52:50Z</time>
      </trkpt>
      <trkpt lat="44.55226" lon="0.0174">
        <ele>14</ele>
        <time>2025-04-18T09:52:47Z</time>
      </trkpt>
      <trkpt lat="44.55227" lon="0.0175">
        <ele>14</ele>
        <time>2025-04-18T09:52:46Z</time>
      </trkpt>
      <trkpt lat="44.55243" lon="0.01796">
        <ele>13</ele>
        <time>2025-04-18T09:52:40Z</time>
      </trkpt>
      <trkpt lat="44.55257" lon="0.01816">
        <ele>13</ele>
        <time>2025-04-18T09:52:36Z</time>
      </trkpt>
      <trkpt lat="44.55326" lon="0.01897">
        <ele>14</ele>
        <time>2025-04-18T09:52:20Z</time>
      </trkpt>
      <trkpt lat="44.55343" lon="0.0192">
        <ele>14</ele>
        <time>2025-04-18T09:52:16Z</time>
      </trkpt>
      <trkpt lat="44.55504" lon="0.02215">
        <ele>13</ele>
        <time>2025-04-18T09:51:29Z</time>
      </trkpt>
      <trkpt lat="44.55563" lon="0.02308">
        <ele>14</ele>
        <time>2025-04-18T09:51:13Z</time>
      </trkpt>
      <trkpt lat="44.55625" lon="0.02437">
        <ele>15</ele>
        <time>2025-04-18T09:50:53Z</time>
      </trkpt>
      <trkpt lat="44.5568" lon="0.02532">
        <ele>16</ele>
        <time>2025-04-18T09:50:38Z</time>
      </trkpt>
      <trkpt lat="44.55721" lon="0.02611">
        <ele>15</ele>
        <time>2025-04-18T09:50:25Z</time>
      </trkpt>
      <trkpt lat="44.55745" lon="0.02639">
        <ele>16</ele>
        <time>2025-04-18T09:50:20Z</time>
      </trkpt>
      <trkpt lat="44.55808" lon="0.02698">
        <ele>15</ele>
        <time>2025-04-18T09:50:06Z</time>
      </trkpt>
      <trkpt lat="44.55835" lon="0.02717">
        <ele>15</ele>
        <time>2025-04-18T09:50:01Z</time>
      </trkpt>
      <trkpt lat="44.55891" lon="0.0274">
        <ele>16</ele>
        <time>2025-04-18T09:49:51Z</time>
      </trkpt>
      <trkpt lat="44.55904" lon="0.02748">
        <ele>16</ele>
        <time>2025-04-18T09:49:48Z</time>
      </trkpt>
      <trkpt lat="44.55932" lon="0.02771">
        <ele>16</ele>
        <time>2025-04-18T09:49:42Z</time>
      </trkpt>
      <trkpt lat="44.55959" lon="0.02801">
        <ele>16</ele>
        <time>2025-04-18T09:49:36Z</time>
      </trkpt>
      <trkpt lat="44.55961" lon="0.02813">
        <ele>16</ele>
        <time>2025-04-18T09:49:35Z</time>
      </trkpt>
      <trkpt lat="44.55877" lon="0.03005">
        <ele>16</ele>
        <time>2025-04-18T09:49:06Z</time>
      </trkpt>
      <trkpt lat="44.55867" lon="0.03034">
        <ele>16</ele>
        <time>2025-04-18T09:49:02Z</time>
      </trkpt>
      <trkpt lat="44.55863" lon="0.03064">
        <ele>16</ele>
        <time>2025-04-18T09:48:58Z</time>
      </trkpt>
      <trkpt lat="44.55867" lon="0.03158">
        <ele>17</ele>
        <time>2025-04-18T09:48:46Z</time>
      </trkpt>
      <trkpt lat="44.55864" lon="0.0323">
        <ele>18</ele>
        <time>2025-04-18T09:48:37Z</time>
      </trkpt>
      <trkpt lat="44.55879" lon="0.0329">
        <ele>18</ele>
        <time>2025-04-18T09:48:29Z</time>
      </trkpt>
      <trkpt lat="44.55888" lon="0.03338">
        <ele>18</ele>
        <time>2025-04-18T09:48:23Z</time>
      </trkpt>
      <trkpt lat="44.55909" lon="0.035">
        <ele>17</ele>
        <time>2025-04-18T09:48:02Z</time>
      </trkpt>
      <trkpt lat="44.55913" lon="0.03506">
        <ele>17</ele>
        <time>2025-04-18T09:48:01Z</time>
      </trkpt>
      <trkpt lat="44.55926" lon="0.03512">
        <ele>17</ele>
        <time>2025-04-18T09:47:58Z</time>
      </trkpt>
      <trkpt lat="44.55981" lon="0.03509">
        <ele>16</ele>
        <time>2025-04-18T09:47:49Z</time>
      </trkpt>
      <trkpt lat="44.5599" lon="0.03514">
        <ele>16</ele>
        <time>2025-04-18T09:47:47Z</time>
      </trkpt>
      <trkpt lat="44.55992" lon="0.03518">
        <ele>16</ele>
        <time>2025-04-18T09:47:46Z</time>
      </trkpt>
      <trkpt lat="44.55992" lon="0.03588">
        <ele>17</ele>
        <time>2025-04-18T09:47:37Z</time>
      </trkpt>
      <trkpt lat="44.5599" lon="0.03596">
        <ele>17</ele>
        <time>2025-04-18T09:47:36Z</time>
      </trkpt>
      <trkpt lat="44.55986" lon="0.03599">
        <ele>17</ele>
        <time>2025-04-18T09:47:35Z</time>
      </trkpt>
      <trkpt lat="44.55944" lon="0.03584">
        <ele>17</ele>
        <time>2025-04-18T09:47:28Z</time>
      </trkpt>
      <trkpt lat="44.55917" lon="0.03578">
        <ele>17</ele>
        <time>2025-04-18T09:47:23Z</time>
      </trkpt>
      <trkpt lat="44.55899" lon="0.0358">
        <ele>17</ele>
        <time>2025-04-18T09:47:20Z</time>
      </trkpt>
      <trkpt lat="44.55871" lon="0.03589">
        <ele>16</ele>
        <time>2025-04-18T09:47:15Z</time>
      </trkpt>
      <trkpt lat="44.55845" lon="0.03603">
        <ele>15</ele>
        <time>2025-04-18T09:47:10Z</time>
      </trkpt>
      <trkpt lat="44.55809" lon="0.0363">
        <ele>15</ele>
        <time>2025-04-18T09:47:02Z</time>
      </trkpt>
      <trkpt lat="44.55766" lon="0.03655">
        <ele>15</ele>
        <time>2025-04-18T09:46:54Z</time>
      </trkpt>
      <trkpt lat="44.55724" lon="0.03685">
        <ele>16</ele>
        <time>2025-04-18T09:46:46Z</time>
      </trkpt>
      <trkpt lat="44.55712" lon="0.03691">
        <ele>16</ele>
        <time>2025-04-18T09:46:43Z</time>
      </trkpt>
      <trkpt lat="44.55675" lon="0.03702">
        <ele>17</ele>
        <time>2025-04-18T09:46:37Z</time>
      </trkpt>
      <trkpt lat="44.55651" lon="0.03703">
        <ele>17</ele>
        <time>2025-04-18T09:46:32Z</time>
      </trkpt>
      <trkpt lat="44.55577" lon="0.03694">
        <ele>17</ele>
        <time>2025-04-18T09:46:19Z</time>
      </trkpt>
      <trkpt lat="44.55542" lon="0.03696">
        <ele>17</ele>
        <time>2025-04-18T09:46:13Z</time>
      </trkpt>
      <trkpt lat="44.55532" lon="0.03694">
        <ele>17</ele>
        <time>2025-04-18T09:46:11Z</time>
      </trkpt>
      <trkpt lat="44.55504" lon="0.0368">
        <ele>17</ele>
        <time>2025-04-18T09:46:06Z</time>
      </trkpt>
      <trkpt lat="44.55473" lon="0.03675">
        <ele>17</ele>
        <time>2025-04-18T09:46:00Z</time>
      </trkpt>
      <trkpt lat="44.55359" lon="0.03679">
        <ele>17</ele>
        <time>2025-04-18T09:45:40Z</time>
      </trkpt>
      <trkpt lat="44.55308" lon="0.03678">
        <ele>16</ele>
        <time>2025-04-18T09:45:31Z</time>
      </trkpt>
      <trkpt lat="44.55283" lon="0.03671">
        <ele>15</ele>
        <time>2025-04-18T09:45:26Z</time>
      </trkpt>
      <trkpt lat="44.55261" lon="0.03658">
        <ele>15</ele>
        <time>2025-04-18T09:45:22Z</time>
      </trkpt>
      <trkpt lat="44.55081" lon="0.03518">
        <ele>14</ele>
        <time>2025-04-18T09:44:46Z</time>
      </trkpt>
      <trkpt lat="44.55068" lon="0.0351">
        <ele>14</ele>
        <time>2025-04-18T09:44:43Z</time>
      </trkpt>
      <trkpt lat="44.55067" lon="0.03507">
        <ele>14</ele>
        <time>2025-04-18T09:44:43Z</time>
      </trkpt>
      <trkpt lat="44.55058" lon="0.03503">
        <ele>14</ele>
        <time>2025-04-18T09:44:41Z</time>
      </trkpt>
      <trkpt lat="44.5505" lon="0.0351">
        <ele>14</ele>
        <time>2025-04-18T09:44:39Z</time>
      </trkpt>
      <trkpt lat="44.55036" lon="0.03554">
        <ele>14</ele>
        <time>2025-04-18T09:44:33Z</time>
      </trkpt>
      <trkpt lat="44.55005" lon="0.03673">
        <ele>15</ele>
        <time>2025-04-18T09:44:17Z</time>
      </trkpt>
      <trkpt lat="44.54982" lon="0.0371">
        <ele>15</ele>
        <time>2025-04-18T09:44:11Z</time>
      </trkpt>
      <trkpt lat="44.54979" lon="0.0372">
        <ele>15</ele>
        <time>2025-04-18T09:44:09Z</time>
      </trkpt>
      <trkpt lat="44.54976" lon="0.0374">
        <ele>15</ele>
        <time>2025-04-18T09:44:07Z</time>
      </trkpt>
      <trkpt lat="44.54971" lon="0.03877">
        <ele>14</ele>
        <time>2025-04-18T09:43:49Z</time>
      </trkpt>
      <trkpt lat="44.54975" lon="0.03886">
        <ele>14</ele>
        <time>2025-04-18T09:43:48Z</time>
      </trkpt>
      <trkpt lat="44.54979" lon="0.03888">
        <ele>14</ele>
        <time>2025-04-18T09:43:47Z</time>
      </trkpt>
      <trkpt lat="44.55037" lon="0.03883">
        <ele>14</ele>
        <time>2025-04-18T09:43:37Z</time>
      </trkpt>
      <trkpt lat="44.55074" lon="0.03876">
        <ele>14</ele>
        <time>2025-04-18T09:43:30Z</time>
      </trkpt>
      <trkpt lat="44.55093" lon="0.03877">
        <ele>14</ele>
        <time>2025-04-18T09:43:27Z</time>
      </trkpt>
      <trkpt lat="44.5512" lon="0.03885">
        <ele>15</ele>
        <time>2025-04-18T09:43:22Z</time>
      </trkpt>
      <trkpt lat="44.5518" lon="0.03915">
        <ele>16</ele>
        <time>2025-04-18T09:43:11Z</time>
      </trkpt>
      <trkpt lat="44.55255" lon="0.03972">
        <ele>14</ele>
        <time>2025-04-18T09:42:56Z</time>
      </trkpt>
      <trkpt lat="44.55329" lon="0.04018">
        <ele>14</ele>
        <time>2025-04-18T09:42:41Z</time>
      </trkpt>
      <trkpt lat="44.55353" lon="0.04044">
        <ele>14</ele>
        <time>2025-04-18T09:42:36Z</time>
      </trkpt>
      <trkpt lat="44.55402" lon="0.04109">
        <ele>14</ele>
        <time>2025-04-18T09:42:24Z</time>
      </trkpt>
      <trkpt lat="44.5542" lon="0.04126">
        <ele>14</ele>
        <time>2025-04-18T09:42:20Z</time>
      </trkpt>
      <trkpt lat="44.55459" lon="0.04154">
        <ele>14</ele>
        <time>2025-04-18T09:42:12Z</time>
      </trkpt>
      <trkpt lat="44.55467" lon="0.04163">
        <ele>14</ele>
        <time>2025-04-18T09:42:10Z</time>
      </trkpt>
      <trkpt lat="44.55494" lon="0.04208">
        <ele>14</ele>
        <time>2025-04-18T09:42:03Z</time>
      </trkpt>
      <trkpt lat="44.55526" lon="0.04245">
        <ele>13</ele>
        <time>2025-04-18T09:41:55Z</time>
      </trkpt>
      <trkpt lat="44.5554" lon="0.04266">
        <ele>13</ele>
        <time>2025-04-18T09:41:52Z</time>
      </trkpt>
      <trkpt lat="44.55556" lon="0.04299">
        <ele>14</ele>
        <time>2025-04-18T09:41:47Z</time>
      </trkpt>
      <trkpt lat="44.55566" lon="0.04333">
        <ele>14</ele>
        <time>2025-04-18T09:41:42Z</time>
      </trkpt>
      <trkpt lat="44.55575" lon="0.04353">
        <ele>14</ele>
        <time>2025-04-18T09:41:39Z</time>
      </trkpt>
      <trkpt lat="44.55588" lon="0.04367">
        <ele>14</ele>
        <time>2025-04-18T09:41:36Z</time>
      </trkpt>
      <trkpt lat="44.55625" lon="0.04393">
        <ele>14</ele>
        <time>2025-04-18T09:41:29Z</time>
      </trkpt>
      <trkpt lat="44.55641" lon="0.0441">
        <ele>15</ele>
        <time>2025-04-18T09:41:25Z</time>
      </trkpt>
      <trkpt lat="44.55659" lon="0.0444">
        <ele>15</ele>
        <time>2025-04-18T09:41:20Z</time>
      </trkpt>
      <trkpt lat="44.55669" lon="0.04467">
        <ele>15</ele>
        <time>2025-04-18T09:41:16Z</time>
      </trkpt>
      <trkpt lat="44.55669" lon="0.04483">
        <ele>15</ele>
        <time>2025-04-18T09:41:14Z</time>
      </trkpt>
      <trkpt lat="44.55657" lon="0.0448">
        <ele>15</ele>
        <time>2025-04-18T09:41:12Z</time>
      </trkpt>
      <trkpt lat="44.55651" lon="0.04481">
        <ele>15</ele>
        <time>2025-04-18T09:41:11Z</time>
      </trkpt>
      <trkpt lat="44.55674" lon="0.04481">
        <ele>15</ele>
        <time>2025-04-18T09:41:07Z</time>
      </trkpt>
      <trkpt lat="44.55703" lon="0.04496">
        <ele>15</ele>
        <time>2025-04-18T09:41:02Z</time>
      </trkpt>
      <trkpt lat="44.55752" lon="0.04542">
        <ele>15</ele>
        <time>2025-04-18T09:40:51Z</time>
      </trkpt>
      <trkpt lat="44.55772" lon="0.04554">
        <ele>15</ele>
        <time>2025-04-18T09:40:47Z</time>
      </trkpt>
      <trkpt lat="44.55823" lon="0.04568">
        <ele>15</ele>
        <time>2025-04-18T09:40:38Z</time>
      </trkpt>
      <trkpt lat="44.55834" lon="0.04573">
        <ele>15</ele>
        <time>2025-04-18T09:40:36Z</time>
      </trkpt>
      <trkpt lat="44.55864" lon="0.04594">
        <ele>15</ele>
        <time>2025-04-18T09:40:30Z</time>
      </trkpt>
      <trkpt lat="44.5592" lon="0.0464">
        <ele>16</ele>
        <time>2025-04-18T09:40:18Z</time>
      </trkpt>
      <trkpt lat="44.55938" lon="0.04642">
        <ele>16</ele>
        <time>2025-04-18T09:40:15Z</time>
      </trkpt>
      <trkpt lat="44.5597" lon="0.04633">
        <ele>16</ele>
        <time>2025-04-18T09:40:09Z</time>
      </trkpt>
      <trkpt lat="44.55985" lon="0.04637">
        <ele>16</ele>
        <time>2025-04-18T09:40:07Z</time>
      </trkpt>
      <trkpt lat="44.56053" lon="0.04681">
        <ele>17</ele>
        <time>2025-04-18T09:39:53Z</time>
      </trkpt>
      <trkpt lat="44.56057" lon="0.04691">
        <ele>16</ele>
        <time>2025-04-18T09:39:52Z</time>
      </trkpt>
      <trkpt lat="44.56057" lon="0.04699">
        <ele>16</ele>
        <time>2025-04-18T09:39:51Z</time>
      </trkpt>
      <trkpt lat="44.56035" lon="0.04835">
        <ele>17</ele>
        <time>2025-04-18T09:39:33Z</time>
      </trkpt>
      <trkpt lat="44.56036" lon="0.04846">
        <ele>18</ele>
        <time>2025-04-18T09:39:32Z</time>
      </trkpt>
      <trkpt lat="44.5604" lon="0.04855">
        <ele>18</ele>
        <time>2025-04-18T09:39:30Z</time>
      </trkpt>
      <trkpt lat="44.56097" lon="0.04901">
        <ele>21</ele>
        <time>2025-04-18T09:39:19Z</time>
      </trkpt>
      <trkpt lat="44.56136" lon="0.04939">
        <ele>23</ele>
        <time>2025-04-18T09:39:10Z</time>
      </trkpt>
      <trkpt lat="44.56207" lon="0.05001">
        <ele>26</ele>
        <time>2025-04-18T09:38:55Z</time>
      </trkpt>
      <trkpt lat="44.56225" lon="0.04994">
        <ele>27</ele>
        <time>2025-04-18T09:38:52Z</time>
      </trkpt>
      <trkpt lat="44.56247" lon="0.05007">
        <ele>27</ele>
        <time>2025-04-18T09:38:48Z</time>
      </trkpt>
      <trkpt lat="44.56261" lon="0.0501">
        <ele>27</ele>
        <time>2025-04-18T09:38:45Z</time>
      </trkpt>
      <trkpt lat="44.56277" lon="0.05005">
        <ele>27</ele>
        <time>2025-04-18T09:38:42Z</time>
      </trkpt>
      <trkpt lat="44.56313" lon="0.04986">
        <ele>27</ele>
        <time>2025-04-18T09:38:36Z</time>
      </trkpt>
      <trkpt lat="44.56374" lon="0.04946">
        <ele>28</ele>
        <time>2025-04-18T09:38:24Z</time>
      </trkpt>
      <trkpt lat="44.56498" lon="0.04845">
        <ele>30</ele>
        <time>2025-04-18T09:37:58Z</time>
      </trkpt>
      <trkpt lat="44.56527" lon="0.04815">
        <ele>31</ele>
        <time>2025-04-18T09:37:52Z</time>
      </trkpt>
      <trkpt lat="44.56542" lon="0.04791">
        <ele>31</ele>
        <time>2025-04-18T09:37:48Z</time>
      </trkpt>
      <trkpt lat="44.56585" lon="0.04675">
        <ele>32</ele>
        <time>2025-04-18T09:37:31Z</time>
      </trkpt>
      <trkpt lat="44.56621" lon="0.04586">
        <ele>33</ele>
        <time>2025-04-18T09:37:18Z</time>
      </trkpt>
      <trkpt lat="44.56639" lon="0.04548">
        <ele>34</ele>
        <time>2025-04-18T09:37:12Z</time>
      </trkpt>
      <trkpt lat="44.56655" lon="0.04521">
        <ele>34</ele>
        <time>2025-04-18T09:37:08Z</time>
      </trkpt>
      <trkpt lat="44.56747" lon="0.04319">
        <ele>37</ele>
        <time>2025-04-18T09:36:37Z</time>
      </trkpt>
      <trkpt lat="44.56768" lon="0.0428">
        <ele>36</ele>
        <time>2025-04-18T09:36:31Z</time>
      </trkpt>
      <trkpt lat="44.56782" lon="0.04266">
        <ele>36</ele>
        <time>2025-04-18T09:36:28Z</time>
      </trkpt>
      <trkpt lat="44.56793" lon="0.04267">
        <ele>36</ele>
        <time>2025-04-18T09:36:26Z</time>
      </trkpt>
      <trkpt lat="44.56808" lon="0.04276">
        <ele>36</ele>
        <time>2025-04-18T09:36:23Z</time>
      </trkpt>
      <trkpt lat="44.5682" lon="0.04276">
        <ele>36</ele>
        <time>2025-04-18T09:36:21Z</time>
      </trkpt>
      <trkpt lat="44.56832" lon="0.04267">
        <ele>36</ele>
        <time>2025-04-18T09:36:19Z</time>
      </trkpt>
      <trkpt lat="44.56837" lon="0.04257">
        <ele>35</ele>
        <time>2025-04-18T09:36:17Z</time>
      </trkpt>
      <trkpt lat="44.56865" lon="0.04166">
        <ele>31</ele>
        <time>2025-04-18T09:36:05Z</time>
      </trkpt>
      <trkpt lat="44.56873" lon="0.04153">
        <ele>31</ele>
        <time>2025-04-18T09:36:02Z</time>
      </trkpt>
      <trkpt lat="44.5689" lon="0.04134">
        <ele>29</ele>
        <time>2025-04-18T09:35:59Z</time>
      </trkpt>
      <trkpt lat="44.56954" lon="0.04108">
        <ele>26</ele>
        <time>2025-04-18T09:35:47Z</time>
      </trkpt>
      <trkpt lat="44.57047" lon="0.04049">
        <ele>24</ele>
        <time>2025-04-18T09:35:29Z</time>
      </trkpt>
      <trkpt lat="44.57075" lon="0.04035">
        <ele>24</ele>
        <time>2025-04-18T09:35:23Z</time>
      </trkpt>
      <trkpt lat="44.57226" lon="0.04004">
        <ele>28</ele>
        <time>2025-04-18T09:34:56Z</time>
      </trkpt>
      <trkpt lat="44.57237" lon="0.04004">
        <ele>28</ele>
        <time>2025-04-18T09:34:54Z</time>
      </trkpt>
      <trkpt lat="44.57259" lon="0.04009">
        <ele>29</ele>
        <time>2025-04-18T09:34:50Z</time>
      </trkpt>
      <trkpt lat="44.57339" lon="0.04053">
        <ele>28</ele>
        <time>2025-04-18T09:34:35Z</time>
      </trkpt>
      <trkpt lat="44.57375" lon="0.04067">
        <ele>29</ele>
        <time>2025-04-18T09:34:28Z</time>
      </trkpt>
      <trkpt lat="44.57406" lon="0.04073">
        <ele>30</ele>
        <time>2025-04-18T09:34:23Z</time>
      </trkpt>
      <trkpt lat="44.57414" lon="0.04079">
        <ele>31</ele>
        <time>2025-04-18T09:34:21Z</time>
      </trkpt>
      <trkpt lat="44.57416" lon="0.04092">
        <ele>32</ele>
        <time>2025-04-18T09:34:19Z</time>
      </trkpt>
      <trkpt lat="44.57414" lon="0.04109">
        <ele>33</ele>
        <time>2025-04-18T09:34:17Z</time>
      </trkpt>
      <trkpt lat="44.57392" lon="0.04207">
        <ele>36</ele>
        <time>2025-04-18T09:34:04Z</time>
      </trkpt>
      <trkpt lat="44.57387" lon="0.04243">
        <ele>36</ele>
        <time>2025-04-18T09:34:00Z</time>
      </trkpt>
      <trkpt lat="44.57386" lon="0.04339">
        <ele>37</ele>
        <time>2025-04-18T09:33:47Z</time>
      </trkpt>
      <trkpt lat="44.57378" lon="0.04423">
        <ele>35</ele>
        <time>2025-04-18T09:33:37Z</time>
      </trkpt>
      <trkpt lat="44.57377" lon="0.04465">
        <ele>34</ele>
        <time>2025-04-18T09:33:31Z</time>
      </trkpt>
      <trkpt lat="44.57384" lon="0.04523">
        <ele>34</ele>
        <time>2025-04-18T09:33:24Z</time>
      </trkpt>
      <trkpt lat="44.57412" lon="0.04644">
        <ele>32</ele>
        <time>2025-04-18T09:33:08Z</time>
      </trkpt>
      <trkpt lat="44.57424" lon="0.04746">
        <ele>31</ele>
        <time>2025-04-18T09:32:55Z</time>
      </trkpt>
      <trkpt lat="44.57436" lon="0.0478">
        <ele>32</ele>
        <time>2025-04-18T09:32:50Z</time>
      </trkpt>
      <trkpt lat="44.57445" lon="0.04794">
        <ele>33</ele>
        <time>2025-04-18T09:32:47Z</time>
      </trkpt>
      <trkpt lat="44.57501" lon="0.04864">
        <ele>34</ele>
        <time>2025-04-18T09:32:34Z</time>
      </trkpt>
      <trkpt lat="44.5753" lon="0.04909">
        <ele>36</ele>
        <time>2025-04-18T09:32:26Z</time>
      </trkpt>
      <trkpt lat="44.57538" lon="0.04926">
        <ele>36</ele>
        <time>2025-04-18T09:32:24Z</time>
      </trkpt>
      <trkpt lat="44.57605" lon="0.05126">
        <ele>35</ele>
        <time>2025-04-18T09:31:56Z</time>
      </trkpt>
      <trkpt lat="44.5761" lon="0.05147">
        <ele>35</ele>
        <time>2025-04-18T09:31:53Z</time>
      </trkpt>
      <trkpt lat="44.57614" lon="0.05192">
        <ele>35</ele>
        <time>2025-04-18T09:31:47Z</time>
      </trkpt>
      <trkpt lat="44.57613" lon="0.0554">
        <ele>37</ele>
        <time>2025-04-18T09:31:03Z</time>
      </trkpt>
      <trkpt lat="44.57618" lon="0.05578">
        <ele>36</ele>
        <time>2025-04-18T09:30:58Z</time>
      </trkpt>
      <trkpt lat="44.57632" lon="0.05611">
        <ele>36</ele>
        <time>2025-04-18T09:30:53Z</time>
      </trkpt>
      <trkpt lat="44.57696" lon="0.05683">
        <ele>38</ele>
        <time>2025-04-18T09:30:39Z</time>
      </trkpt>
      <trkpt lat="44.5772" lon="0.05727">
        <ele>40</ele>
        <time>2025-04-18T09:30:32Z</time>
      </trkpt>
      <trkpt lat="44.57733" lon="0.05764">
        <ele>41</ele>
        <time>2025-04-18T09:30:27Z</time>
      </trkpt>
      <trkpt lat="44.57745" lon="0.05825">
        <ele>41</ele>
        <time>2025-04-18T09:30:19Z</time>
      </trkpt>
      <trkpt lat="44.57781" lon="0.06072">
        <ele>39</ele>
        <time>2025-04-18T09:29:47Z</time>
      </trkpt>
      <trkpt lat="44.57787" lon="0.06117">
        <ele>38</ele>
        <time>2025-04-18T09:29:41Z</time>
      </trkpt>
      <trkpt lat="44.57787" lon="0.06163">
        <ele>37</ele>
        <time>2025-04-18T09:29:35Z</time>
      </trkpt>
      <trkpt lat="44.57778" lon="0.06204">
        <ele>38</ele>
        <time>2025-04-18T09:29:30Z</time>
      </trkpt>
      <trkpt lat="44.57744" lon="0.06272">
        <ele>38</ele>
        <time>2025-04-18T09:29:19Z</time>
      </trkpt>
      <trkpt lat="44.57734" lon="0.06313">
        <ele>39</ele>
        <time>2025-04-18T09:29:13Z</time>
      </trkpt>
      <trkpt lat="44.57733" lon="0.06334">
        <ele>40</ele>
        <time>2025-04-18T09:29:11Z</time>
      </trkpt>
      <trkpt lat="44.57738" lon="0.06377">
        <ele>40</ele>
        <time>2025-04-18T09:29:05Z</time>
      </trkpt>
      <trkpt lat="44.57773" lon="0.06585">
        <ele>41</ele>
        <time>2025-04-18T09:28:38Z</time>
      </trkpt>
      <trkpt lat="44.57796" lon="0.06877">
        <ele>46</ele>
        <time>2025-04-18T09:28:01Z</time>
      </trkpt>
      <trkpt lat="44.57811" lon="0.07109">
        <ele>48</ele>
        <time>2025-04-18T09:27:31Z</time>
      </trkpt>
      <trkpt lat="44.57826" lon="0.07192">
        <ele>47</ele>
        <time>2025-04-18T09:27:21Z</time>
      </trkpt>
      <trkpt lat="44.57836" lon="0.07231">
        <ele>47</ele>
        <time>2025-04-18T09:27:15Z</time>
      </trkpt>
      <trkpt lat="44.57864" lon="0.07301">
        <ele>50</ele>
        <time>2025-04-18T09:27:05Z</time>
      </trkpt>
      <trkpt lat="44.57972" lon="0.07516">
        <ele>52</ele>
        <time>2025-04-18T09:26:32Z</time>
      </trkpt>
      <trkpt lat="44.57982" lon="0.07531">
        <ele>51</ele>
        <time>2025-04-18T09:26:29Z</time>
      </trkpt>
      <trkpt lat="44.58005" lon="0.07555">
        <ele>51</ele>
        <time>2025-04-18T09:26:24Z</time>
      </trkpt>
      <trkpt lat="44.58089" lon="0.07625">
        <ele>52</ele>
        <time>2025-04-18T09:26:07Z</time>
      </trkpt>
      <trkpt lat="44.58145" lon="0.07677">
        <ele>52</ele>
        <time>2025-04-18T09:25:55Z</time>
      </trkpt>
      <trkpt lat="44.58249" lon="0.07756">
        <ele>49</ele>
        <time>2025-04-18T09:25:34Z</time>
      </trkpt>
      <trkpt lat="44.5829" lon="0.07799">
        <ele>51</ele>
        <time>2025-04-18T09:25:25Z</time>
      </trkpt>
      <trkpt lat="44.58314" lon="0.07834">
        <ele>50</ele>
        <time>2025-04-18T09:25:19Z</time>
      </trkpt>
      <trkpt lat="44.58366" lon="0.07931">
        <ele>50</ele>
        <time>2025-04-18T09:25:03Z</time>
      </trkpt>
      <trkpt lat="44.58491" lon="0.0819">
        <ele>51</ele>
        <time>2025-04-18T09:24:23Z</time>
      </trkpt>
      <trkpt lat="44.58541" lon="0.08284">
        <ele>52</ele>
        <time>2025-04-18T09:24:09Z</time>
      </trkpt>
      <trkpt lat="44.58559" lon="0.08324">
        <ele>52</ele>
        <time>2025-04-18T09:24:03Z</time>
      </trkpt>
      <trkpt lat="44.58582" lon="0.08385">
        <ele>52</ele>
        <time>2025-04-18T09:23:54Z</time>
      </trkpt>
      <trkpt lat="44.58666" lon="0.08557">
        <ele>55</ele>
        <time>2025-04-18T09:23:27Z</time>
      </trkpt>
      <trkpt lat="44.58689" lon="0.08615">
        <ele>55</ele>
        <time>2025-04-18T09:23:19Z</time>
      </trkpt>
      <trkpt lat="44.58704" lon="0.08676">
        <ele>54</ele>
        <time>2025-04-18T09:23:11Z</time>
      </trkpt>
      <trkpt lat="44.58743" lon="0.08951">
        <ele>54</ele>
        <time>2025-04-18T09:22:35Z</time>
      </trkpt>
      <trkpt lat="44.58747" lon="0.09004">
        <ele>55</ele>
        <time>2025-04-18T09:22:29Z</time>
      </trkpt>
      <trkpt lat="44.58747" lon="0.09144">
        <ele>55</ele>
        <time>2025-04-18T09:22:11Z</time>
      </trkpt>
      <trkpt lat="44.5875" lon="0.09266">
        <ele>57</ele>
        <time>2025-04-18T09:21:55Z</time>
      </trkpt>
      <trkpt lat="44.58768" lon="0.09542">
        <ele>58</ele>
        <time>2025-04-18T09:21:20Z</time>
      </trkpt>
      <trkpt lat="44.58783" lon="0.09674">
        <ele>61</ele>
        <time>2025-04-18T09:21:03Z</time>
      </trkpt>
      <trkpt lat="44.58814" lon="0.0986">
        <ele>64</ele>
        <time>2025-04-18T09:20:39Z</time>
      </trkpt>
      <trkpt lat="44.58817" lon="0.09942">
        <ele>63</ele>
        <time>2025-04-18T09:20:29Z</time>
      </trkpt>
      <trkpt lat="44.58827" lon="0.10046">
        <ele>63</ele>
        <time>2025-04-18T09:20:15Z</time>
      </trkpt>
      <trkpt lat="44.58836" lon="0.10175">
        <ele>62</ele>
        <time>2025-04-18T09:19:59Z</time>
      </trkpt>
      <trkpt lat="44.58844" lon="0.10211">
        <ele>62</ele>
        <time>2025-04-18T09:19:54Z</time>
      </trkpt>
      <trkpt lat="44.58857" lon="0.10242">
        <ele>62</ele>
        <time>2025-04-18T09:19:50Z</time>
      </trkpt>
      <trkpt lat="44.58911" lon="0.10351">
        <ele>61</ele>
        <time>2025-04-18T09:19:33Z</time>
      </trkpt>
      <trkpt lat="44.58919" lon="0.10363">
        <ele>62</ele>
        <time>2025-04-18T09:19:31Z</time>
      </trkpt>
      <trkpt lat="44.58927" lon="0.1037">
        <ele>62</ele>
        <time>2025-04-18T09:19:29Z</time>
      </trkpt>
      <trkpt lat="44.58935" lon="0.10372">
        <ele>63</ele>
        <time>2025-04-18T09:19:28Z</time>
      </trkpt>
      <trkpt lat="44.58954" lon="0.10364">
        <ele>64</ele>
        <time>2025-04-18T09:19:24Z</time>
      </trkpt>
      <trkpt lat="44.58985" lon="0.1036">
        <ele>66</ele>
        <time>2025-04-18T09:19:19Z</time>
      </trkpt>
      <trkpt lat="44.59069" lon="0.10376">
        <ele>70</ele>
        <time>2025-04-18T09:19:03Z</time>
      </trkpt>
      <trkpt lat="44.59112" lon="0.1039">
        <ele>72</ele>
        <time>2025-04-18T09:18:56Z</time>
      </trkpt>
      <trkpt lat="44.59132" lon="0.10408">
        <ele>73</ele>
        <time>2025-04-18T09:18:51Z</time>
      </trkpt>
      <trkpt lat="44.59141" lon="0.1042">
        <ele>74</ele>
        <time>2025-04-18T09:18:49Z</time>
      </trkpt>
      <trkpt lat="44.59247" lon="0.10578">
        <ele>81</ele>
        <time>2025-04-18T09:18:22Z</time>
      </trkpt>
      <trkpt lat="44.59282" lon="0.1062">
        <ele>85</ele>
        <time>2025-04-18T09:18:13Z</time>
      </trkpt>
      <trkpt lat="44.59309" lon="0.10642">
        <ele>87</ele>
        <time>2025-04-18T09:18:08Z</time>
      </trkpt>
      <trkpt lat="44.59488" lon="0.10746">
        <ele>99</ele>
        <time>2025-04-18T09:17:33Z</time>
      </trkpt>
      <trkpt lat="44.59517" lon="0.10758">
        <ele>101</ele>
        <time>2025-04-18T09:17:28Z</time>
      </trkpt>
      <trkpt lat="44.59547" lon="0.10763">
        <ele>102</ele>
        <time>2025-04-18T09:17:23Z</time>
      </trkpt>
      <trkpt lat="44.59561" lon="0.10762">
        <ele>102</ele>
        <time>2025-04-18T09:17:20Z</time>
      </trkpt>
      <trkpt lat="44.59625" lon="0.10745">
        <ele>105</ele>
        <time>2025-04-18T09:17:09Z</time>
      </trkpt>
      <trkpt lat="44.59741" lon="0.10709">
        <ele>109</ele>
        <time>2025-04-18T09:16:47Z</time>
      </trkpt>
      <trkpt lat="44.59811" lon="0.10696">
        <ele>114</ele>
        <time>2025-04-18T09:16:35Z</time>
      </trkpt>
      <trkpt lat="44.5986" lon="0.10694">
        <ele>117</ele>
        <time>2025-04-18T09:16:26Z</time>
      </trkpt>
      <trkpt lat="44.59891" lon="0.10698">
        <ele>118</ele>
        <time>2025-04-18T09:16:21Z</time>
      </trkpt>
      <trkpt lat="44.5992" lon="0.10707">
        <ele>118</ele>
        <time>2025-04-18T09:16:15Z</time>
      </trkpt>
      <trkpt lat="44.59948" lon="0.1072">
        <ele>117</ele>
        <time>2025-04-18T09:16:10Z</time>
      </trkpt>
      <trkpt lat="44.60035" lon="0.10769">
        <ele>112</ele>
        <time>2025-04-18T09:15:53Z</time>
      </trkpt>
      <trkpt lat="44.60066" lon="0.10779">
        <ele>110</ele>
        <time>2025-04-18T09:15:48Z</time>
      </trkpt>
      <trkpt lat="44.60177" lon="0.10791">
        <ele>104</ele>
        <time>2025-04-18T09:15:28Z</time>
      </trkpt>
      <trkpt lat="44.60408" lon="0.10805">
        <ele>95</ele>
        <time>2025-04-18T09:14:47Z</time>
      </trkpt>
      <trkpt lat="44.6042" lon="0.10808">
        <ele>95</ele>
        <time>2025-04-18T09:14:45Z</time>
      </trkpt>
      <trkpt lat="44.60431" lon="0.10815">
        <ele>94</ele>
        <time>2025-04-18T09:14:43Z</time>
      </trkpt>
      <trkpt lat="44.60452" lon="0.10836">
        <ele>94</ele>
        <time>2025-04-18T09:14:38Z</time>
      </trkpt>
      <trkpt lat="44.6046" lon="0.1085">
        <ele>93</ele>
        <time>2025-04-18T09:14:36Z</time>
      </trkpt>
      <trkpt lat="44.60465" lon="0.10866">
        <ele>93</ele>
        <time>2025-04-18T09:14:33Z</time>
      </trkpt>
      <trkpt lat="44.60481" lon="0.10938">
        <ele>90</ele>
        <time>2025-04-18T09:14:24Z</time>
      </trkpt>
      <trkpt lat="44.60489" lon="0.10953">
        <ele>89</ele>
        <time>2025-04-18T09:14:21Z</time>
      </trkpt>
      <trkpt lat="44.60508" lon="0.10979">
        <ele>87</ele>
        <time>2025-04-18T09:14:17Z</time>
      </trkpt>
      <trkpt lat="44.60519" lon="0.10991">
        <ele>85</ele>
        <time>2025-04-18T09:14:14Z</time>
      </trkpt>
      <trkpt lat="44.60542" lon="0.11008">
        <ele>81</ele>
        <time>2025-04-18T09:14:10Z</time>
      </trkpt>
      <trkpt lat="44.60554" lon="0.11014">
        <ele>79</ele>
        <time>2025-04-18T09:14:07Z</time>
      </trkpt>
      <trkpt lat="44.60581" lon="0.11018">
        <ele>77</ele>
        <time>2025-04-18T09:14:03Z</time>
      </trkpt>
      <trkpt lat="44.60608" lon="0.11014">
        <ele>74</ele>
        <time>2025-04-18T09:13:58Z</time>
      </trkpt>
      <trkpt lat="44.60698" lon="0.10988">
        <ele>69</ele>
        <time>2025-04-18T09:13:41Z</time>
      </trkpt>
      <trkpt lat="44.60746" lon="0.10973">
        <ele>66</ele>
        <time>2025-04-18T09:13:33Z</time>
      </trkpt>
      <trkpt lat="44.60793" lon="0.10953">
        <ele>63</ele>
        <time>2025-04-18T09:13:24Z</time>
      </trkpt>
      <trkpt lat="44.60839" lon="0.10928">
        <ele>59</ele>
        <time>2025-04-18T09:13:15Z</time>
      </trkpt>
      <trkpt lat="44.6103" lon="0.10815">
        <ele>58</ele>
        <time>2025-04-18T09:12:38Z</time>
      </trkpt>
      <trkpt lat="44.61073" lon="0.10787">
        <ele>57</ele>
        <time>2025-04-18T09:12:30Z</time>
      </trkpt>
      <trkpt lat="44.61086" lon="0.10776">
        <ele>57</ele>
        <time>2025-04-18T09:12:27Z</time>
      </trkpt>
      <trkpt lat="44.61114" lon="0.10734">
        <ele>58</ele>
        <time>2025-04-18T09:12:20Z</time>
      </trkpt>
      <trkpt lat="44.6113" lon="0.10702">
        <ele>58</ele>
        <time>2025-04-18T09:12:15Z</time>
      </trkpt>
      <trkpt lat="44.61167" lon="0.10602">
        <ele>56</ele>
        <time>2025-04-18T09:12:01Z</time>
      </trkpt>
      <trkpt lat="44.61183" lon="0.10579">
        <ele>55</ele>
        <time>2025-04-18T09:11:57Z</time>
      </trkpt>
      <trkpt lat="44.61193" lon="0.10574">
        <ele>55</ele>
        <time>2025-04-18T09:11:55Z</time>
      </trkpt>
      <trkpt lat="44.61215" lon="0.1057">
        <ele>54</ele>
        <time>2025-04-18T09:11:51Z</time>
      </trkpt>
      <trkpt lat="44.61227" lon="0.10573">
        <ele>53</ele>
        <time>2025-04-18T09:11:49Z</time>
      </trkpt>
      <trkpt lat="44.61341" lon="0.10633">
        <ele>52</ele>
        <time>2025-04-18T09:11:27Z</time>
      </trkpt>
      <trkpt lat="44.6136" lon="0.1064">
        <ele>54</ele>
        <time>2025-04-18T09:11:23Z</time>
      </trkpt>
      <trkpt lat="44.61369" lon="0.1064">
        <ele>55</ele>
        <time>2025-04-18T09:11:22Z</time>
      </trkpt>
      <trkpt lat="44.61378" lon="0.10636">
        <ele>56</ele>
        <time>2025-04-18T09:11:20Z</time>
      </trkpt>
      <trkpt lat="44.61385" lon="0.10629">
        <ele>57</ele>
        <time>2025-04-18T09:11:19Z</time>
      </trkpt>
      <trkpt lat="44.61402" lon="0.106">
        <ele>57</ele>
        <time>2025-04-18T09:11:14Z</time>
      </trkpt>
      <trkpt lat="44.61409" lon="0.10592">
        <ele>57</ele>
        <time>2025-04-18T09:11:12Z</time>
      </trkpt>
      <trkpt lat="44.61426" lon="0.10584">
        <ele>58</ele>
        <time>2025-04-18T09:11:09Z</time>
      </trkpt>
      <trkpt lat="44.61435" lon="0.10585">
        <ele>58</ele>
        <time>2025-04-18T09:11:07Z</time>
      </trkpt>
      <trkpt lat="44.61468" lon="0.10596">
        <ele>62</ele>
        <time>2025-04-18T09:11:01Z</time>
      </trkpt>
      <trkpt lat="44.61519" lon="0.10617">
        <ele>68</ele>
        <time>2025-04-18T09:10:52Z</time>
      </trkpt>
      <trkpt lat="44.61528" lon="0.10617">
        <ele>69</ele>
        <time>2025-04-18T09:10:50Z</time>
      </trkpt>
      <trkpt lat="44.61544" lon="0.10609">
        <ele>70</ele>
        <time>2025-04-18T09:10:47Z</time>
      </trkpt>
      <trkpt lat="44.61555" lon="0.1059">
        <ele>70</ele>
        <time>2025-04-18T09:10:44Z</time>
      </trkpt>
      <trkpt lat="44.61559" lon="0.10577">
        <ele>70</ele>
        <time>2025-04-18T09:10:42Z</time>
        <extensions>
          <visugpx:TrkExtension xmlns:visugpx="https://www.visugpx.com/editgpx/">
            <visugpx:node>1</visugpx:node>
            </visugpx:TrkExtension>
        </extensions>
      </trkpt>
      <trkpt lat="44.61574" lon="0.10465">
        <ele>69.5</ele>
      </trkpt>
      <trkpt lat="44.61579" lon="0.10477">
        <ele>70.1</ele>
      </trkpt>
      <trkpt lat="44.61582" lon="0.10491">
        <ele>70.7</ele>
      </trkpt>
      <trkpt lat="44.61592" lon="0.10626">
        <ele>74.3</ele>
        <extensions>
          <visugpx:TrkExtension xmlns:visugpx="https://www.visugpx.com/editgpx/">
            <visugpx:node>2</visugpx:node>
            </visugpx:TrkExtension>
        </extensions>
      </trkpt>
    </trkseg>
  </trk>
</gpx>